N4147T / N4147T 7700 Squawk Report (20th of May, 2018)

Time Lat Lon Altitude Heading Speed Vertical Rate
2018-05-20 21:01:39 GMT 33.274750 -111.801468 1,300 230 69 -576
2018-05-20 21:01:36 GMT 33.275635 -111.800293 1,400 229 71 -512
2018-05-20 21:01:30 GMT 33.276844 -111.798615 1,400 231 72 -512
2018-05-20 21:01:27 GMT 33.277496 -111.797661 1,500 232 69 -448
2018-05-20 21:01:16 GMT 33.279591 -111.794968 1,500 231 56 -576
2018-05-20 21:01:08 GMT 33.280987 -111.792839 1,600 231 68 64
2018-05-20 21:01:05 GMT 33.281616 -111.791931 1,600 232 73 -192
2018-05-20 21:00:57 GMT 33.283218 -111.789291 1,600 232 79 -448
2018-05-20 21:00:54 GMT 33.284058 -111.788132 1,700 234 77 -960
2018-05-20 21:00:47 GMT 33.284199 -111.785385 1,800 303 78 -768
2018-05-20 21:00:44 GMT 33.283314 -111.784149 1,800 320 81 -384
2018-05-20 21:00:33 GMT 33.279831 -111.780998 1,900 325 90 -384
2018-05-20 21:00:22 GMT 33.275448 -111.781013 1,900 42 93 128
2018-05-20 21:00:10 GMT 33.272369 -111.785507 1,900 48 92 -384
2018-05-20 21:00:01 GMT 33.269768 -111.788689 2,000 44 86 -448
2018-05-20 20:59:58 GMT 33.269165 -111.789459 2,100 45 87 -704
2018-05-20 20:59:47 GMT 33.265915 -111.793633 2,200 45 97 -320
2018-05-20 20:59:36 GMT 33.262318 -111.798111 2,200 45 102 64
2018-05-20 20:59:25 GMT 33.258591 -111.802475 2,200 45 103 0
2018-05-20 20:59:15 GMT 33.254883 -111.806931 2,300 41 97 512
2018-05-20 20:59:06 GMT 33.252075 -111.810661 2,200 64 97 512
2018-05-20 20:59:03 GMT 33.251705 -111.811951 2,200 83 93 384
2018-05-20 20:58:59 GMT 33.251678 -111.813576 2,100 103 89 640
2018-05-20 20:58:53 GMT 33.253189 -111.816544 2,100 138 85 768
2018-05-20 20:58:45 GMT 33.255020 -111.818352 2,000 135 85 1216
2018-05-20 20:58:42 GMT 33.256359 -111.819801 1,900 149 86 960
2018-05-20 20:58:34 GMT 33.259338 -111.820923 1,800 185 82 576
2018-05-20 20:58:31 GMT 33.260422 -111.820717 1,800 197 81 768
2018-05-20 20:58:23 GMT 33.262894 -111.818794 1,700 230 82 896
2018-05-20 20:58:19 GMT 33.263718 -111.817474 1,600 235 83 896
2018-05-20 20:58:12 GMT 33.265392 -111.814865 1,500 232 81 832
2018-05-20 20:58:07 GMT 33.266415 -111.813354 1,500 231 79 512
2018-05-20 20:58:01 GMT 33.267952 -111.811165 1,400 231 80 576
2018-05-20 20:57:57 GMT 33.269070 -111.809540 1,400 231 78 768
2018-05-20 20:57:21 GMT 33.275208 -111.800888 1,300 230 61 -448
2018-05-20 20:57:16 GMT 33.276192 -111.799507 1,400 231 63 -512
2018-05-20 20:57:08 GMT 33.277634 -111.797424 1,400 231 63 -640
2018-05-20 20:57:05 GMT 33.278240 -111.796654 1,500 229 64 -512
2018-05-20 20:57:01 GMT 33.279327 -111.795227 1,500 230 67 -64
2018-05-20 20:56:55 GMT 33.280430 -111.793625 1,500 231 67 -448
2018-05-20 20:56:49 GMT 33.281662 -111.791824 1,500 230 70 -256
2018-05-20 20:56:45 GMT 33.282661 -111.790375 1,600 236 75 -512
2018-05-20 20:56:39 GMT 33.283779 -111.788246 1,600 239 77 -384
2018-05-20 20:56:34 GMT 33.284500 -111.786491 1,600 265 79 -448
2018-05-20 20:56:27 GMT 33.283859 -111.783798 1,700 305 82 -448
2018-05-20 20:56:23 GMT 33.282757 -111.782135 1,700 313 82 -384
2018-05-20 20:56:15 GMT 33.280838 -111.779953 1,800 319 86 -640
2018-05-20 20:56:11 GMT 33.279545 -111.778603 1,800 319 88 -384
2018-05-20 20:56:04 GMT 33.277214 -111.776527 1,900 339 92 -640
2018-05-20 20:56:00 GMT 33.275448 -111.776474 1,900 15 96 -512
2018-05-20 20:55:55 GMT 33.273285 -111.778366 2,000 47 92 -704
2018-05-20 20:55:50 GMT 33.272003 -111.780014 2,000 45 91 -128
2018-05-20 20:55:44 GMT 33.270126 -111.782150 2,000 41 92 0
2018-05-20 20:55:39 GMT 33.268341 -111.784348 2,100 52 92 -128
2018-05-20 20:55:32 GMT 33.266922 -111.786606 2,000 52 93 0
2018-05-20 20:55:28 GMT 33.265625 -111.788635 2,100 52 94 -704
2018-05-20 20:55:21 GMT 33.263947 -111.791100 2,100 48 97 -192
2018-05-20 20:55:17 GMT 33.262390 -111.793198 2,200 48 102 -576
2018-05-20 20:55:11 GMT 33.260651 -111.795609 2,200 50 105 -512
2018-05-20 20:55:06 GMT 33.259094 -111.797752 2,200 46 106 -64
2018-05-20 20:55:00 GMT 33.256714 -111.800552 2,200 44 108 -320
2018-05-20 20:54:54 GMT 33.255203 -111.802475 2,200 48 104 384
2018-05-20 20:54:49 GMT 33.252960 -111.805336 2,200 38 105 192
2018-05-20 20:54:43 GMT 33.251240 -111.806572 2,200 20 103 64
2018-05-20 20:54:37 GMT 33.247982 -111.807190 2,200 358 114 192
2018-05-20 20:54:33 GMT 33.245911 -111.807091 2,200 357 108 0
2018-05-20 20:54:29 GMT 33.244022 -111.807022 2,200 357 110 -256
2018-05-20 20:54:23 GMT 33.240440 -111.806793 2,200 359 116 -64
2018-05-20 20:54:18 GMT 33.238297 -111.806686 2,300 359 115 -768
2018-05-20 20:54:12 GMT 33.234833 -111.806541 2,400 358 105 -896
2018-05-20 20:54:04 GMT 33.230988 -111.806404 2,400 359 101 -256
2018-05-20 20:54:01 GMT 33.229824 -111.806404 2,400 359 102 -256
2018-05-20 20:53:53 GMT 33.225815 -111.806267 2,500 359 102 -512
2018-05-20 20:53:50 GMT 33.224670 -111.806213 2,500 359 102 -448
2018-05-20 20:53:42 GMT 33.221329 -111.806107 2,500 359 103 -128
2018-05-20 20:53:39 GMT 33.219257 -111.806015 2,500 358 104 -128
2018-05-20 20:53:27 GMT 33.214043 -111.805672 2,600 355 107 576
2018-05-20 20:53:23 GMT 33.212090 -111.805450 2,500 358 109 192
2018-05-20 20:53:17 GMT 33.208786 -111.805611 2,500 6 107 -768
2018-05-20 20:53:11 GMT 33.206085 -111.805840 2,600 1 104 -704
2018-05-20 20:53:07 GMT 33.203430 -111.805901 2,600 359 105 -192
2018-05-20 20:53:02 GMT 33.201710 -111.805786 2,700 358 105 -320
2018-05-20 20:52:54 GMT 33.197800 -111.805664 2,700 358 107 -1088
2018-05-20 20:52:51 GMT 33.196289 -111.805611 2,800 358 107 -1088
2018-05-20 20:52:43 GMT 33.192261 -111.805443 2,900 357 112 -256
2018-05-20 20:52:40 GMT 33.190491 -111.805283 2,900 355 115 -384
2018-05-20 20:52:32 GMT 33.186356 -111.804733 3,000 353 123 -1024
2018-05-20 20:52:26 GMT 33.182831 -111.804123 3,100 352 116 -1472
2018-05-20 20:52:22 GMT 33.180313 -111.803688 3,300 354 108 -640
2018-05-20 20:52:19 GMT 33.179306 -111.803520 3,300 354 108 -512
2018-05-20 20:52:11 GMT 33.174637 -111.802643 3,300 348 103 192
2018-05-20 20:52:08 GMT 33.173859 -111.802422 3,200 348 101 320
2018-05-20 20:52:01 GMT 33.170288 -111.801491 3,200 347 98 -704
2018-05-20 20:51:58 GMT 33.168751 -111.801025 3,400 345 99 -512
2018-05-20 20:51:51 GMT 33.165539 -111.800125 3,400 344 100 -576
2018-05-20 20:51:46 GMT 33.164200 -111.799622 3,400 340 100 -1088
2018-05-20 20:51:38 GMT 33.160461 -111.797997 3,600 343 100 -768
2018-05-20 20:51:35 GMT 33.159393 -111.797546 3,600 343 100 -832
2018-05-20 20:51:25 GMT 33.154724 -111.796272 3,700 346 100 -320
2018-05-20 20:51:15 GMT 33.150921 -111.793060 3,700 286 95 512
2018-05-20 20:51:05 GMT 33.152596 -111.788246 3,600 124 82 640
2018-05-20 20:51:02 GMT 33.153107 -111.787910 3,600 203 85 -192
2018-05-20 20:50:53 GMT 33.156410 -111.788750 3,500 130 82 832
2018-05-20 20:50:49 GMT 33.157204 -111.790314 3,500 109 83 960
2018-05-20 20:50:43 GMT 33.157379 -111.793800 3,400 85 97 960
2018-05-20 20:50:40 GMT 33.157288 -111.794899 3,400 83 99 128
2018-05-20 20:50:31 GMT 33.156738 -111.799843 3,400 84 100 -64
2018-05-20 20:50:19 GMT 33.155853 -111.805901 3,400 63 97 384
2018-05-20 20:50:09 GMT 33.152409 -111.810043 3,400 28 90 -192
2018-05-20 20:50:01 GMT 33.149277 -111.811264 3,400 5 91 0
2018-05-20 20:49:56 GMT 33.147522 -111.811340 3,400 359 95 128
2018-05-20 20:49:50 GMT 33.144516 -111.811050 3,400 356 99 -512
2018-05-20 20:49:45 GMT 33.142456 -111.810936 3,500 358 100 -192
2018-05-20 20:49:39 GMT 33.138748 -111.810661 3,500 358 99 -256
2018-05-20 20:49:33 GMT 33.137184 -111.810661 3,500 0 99 -256
2018-05-20 20:49:27 GMT 33.133739 -111.810890 3,600 6 99 -256
2018-05-20 20:49:23 GMT 33.132206 -111.811111 3,600 7 100 -64
2018-05-20 20:49:16 GMT 33.128769 -111.811707 3,600 8 102 512
2018-05-20 20:49:12 GMT 33.127121 -111.812035 3,500 17 103 896
2018-05-20 20:49:04 GMT 33.124054 -111.814507 3,400 47 100 768
2018-05-20 20:49:01 GMT 33.123222 -111.815933 3,300 63 96 1024
2018-05-20 20:48:54 GMT 33.122314 -111.819122 3,200 77 91 1536
2018-05-20 20:48:50 GMT 33.121948 -111.821373 3,100 78 92 1408
2018-05-20 20:48:44 GMT 33.121452 -111.824562 3,000 81 90 1152
2018-05-20 20:48:39 GMT 33.121220 -111.826866 3,000 83 92 576
2018-05-20 20:48:33 GMT 33.121536 -111.830276 2,900 119 87 0
2018-05-20 20:48:24 GMT 33.123688 -111.832474 2,900 144 84 512
2018-05-20 20:48:21 GMT 33.125034 -111.833084 2,900 162 92 512
2018-05-20 20:48:16 GMT 33.127167 -111.833679 2,900 173 93 -448
2018-05-20 20:48:11 GMT 33.129364 -111.833298 2,900 212 96 -768
2018-05-20 20:48:06 GMT 33.130997 -111.831123 3,000 249 101 -1216
2018-05-20 20:48:01 GMT 33.131367 -111.827988 3,200 284 103 -1920
2018-05-20 20:47:57 GMT 33.130901 -111.826469 3,200 284 103 -1920
2018-05-20 20:47:54 GMT 33.129784 -111.824791 3,300 316 105 -704
2018-05-20 20:47:50 GMT 33.127831 -111.823502 3,300 347 112 -128
2018-05-20 20:47:44 GMT 33.124924 -111.823738 3,300 27 127 -320
2018-05-20 20:47:37 GMT 33.122452 -111.828239 3,700 89 114 -3904
2018-05-20 20:47:31 GMT 33.123222 -111.830223 3,900 144 94 -2560
2018-05-20 20:47:26 GMT 33.125175 -111.831238 4,000 175 87 -1664
2018-05-20 20:47:22 GMT 33.127167 -111.831039 4,100 197 81 -1088
2018-05-20 20:47:16 GMT 33.129272 -111.829834 4,200 218 81 -704
2018-05-20 20:47:11 GMT 33.130646 -111.828018 4,300 244 88 -448
2018-05-20 20:47:04 GMT 33.131229 -111.825409 4,300 268 92 -832
2018-05-20 20:47:00 GMT 33.131012 -111.822639 4,400 286 96 -256
2018-05-20 20:46:54 GMT 33.130157 -111.820137 4,400 305 97 -384
2018-05-20 20:46:49 GMT 33.128574 -111.817612 4,400 312 97 -320
2018-05-20 20:46:42 GMT 33.127167 -111.815224 4,400 294 95 -64
2018-05-20 20:46:36 GMT 33.126434 -111.812256 4,500 287 96 -256
2018-05-20 20:46:33 GMT 33.125702 -111.809784 4,500 290 95 -896
2018-05-20 20:46:28 GMT 33.125153 -111.807533 4,600 282 89 -192
2018-05-20 20:46:25 GMT 33.125015 -111.806488 4,600 281 90 -192
2018-05-20 20:46:21 GMT 33.124851 -111.804832 4,600 272 89 -512
2018-05-20 20:46:17 GMT 33.124851 -111.802147 4,600 270 82 -1216
2018-05-20 20:46:14 GMT 33.124832 -111.801491 4,700 268 77 -1728
2018-05-20 20:46:11 GMT 33.124924 -111.800064 4,800 267 72 -1216
2018-05-20 20:46:06 GMT 33.124924 -111.797646 4,800 270 77 -448
2018-05-20 20:46:01 GMT 33.124989 -111.795639 4,900 266 79 -320
2018-05-20 20:45:55 GMT 33.125519 -111.792374 4,900 257 84 576
2018-05-20 20:45:52 GMT 33.125610 -111.791878 4,800 257 86 640
2018-05-20 20:45:49 GMT 33.125839 -111.790726 4,800 257 86 768
2018-05-20 20:45:42 GMT 33.126572 -111.787125 4,800 258 83 256
2018-05-20 20:45:39 GMT 33.126804 -111.785774 4,700 260 84 64
2018-05-20 20:45:36 GMT 33.126945 -111.784882 4,700 260 84 0
2018-05-20 20:45:31 GMT 33.127167 -111.782043 4,700 271 84 64
2018-05-20 20:45:27 GMT 33.127075 -111.780670 4,700 275 85 64
2018-05-20 20:45:20 GMT 33.126713 -111.776642 4,700 278 87 192
2018-05-20 20:45:17 GMT 33.126617 -111.775688 4,700 278 87 0
2018-05-20 20:45:09 GMT 33.125977 -111.771553 4,700 290 90 -128
2018-05-20 20:45:06 GMT 33.125641 -111.770584 4,700 302 90 -384
2018-05-20 20:44:56 GMT 33.122292 -111.766884 4,800 332 90 -192
2018-05-20 20:44:45 GMT 33.118240 -111.764412 4,800 334 85 -896
2018-05-20 20:44:36 GMT 33.114990 -111.762764 4,900 342 87 576
2018-05-20 20:44:32 GMT 33.113754 -111.762321 4,900 345 90 448
2018-05-20 20:44:23 GMT 33.109581 -111.763016 4,900 24 90 -576
2018-05-20 20:44:15 GMT 33.107067 -111.765656 4,900 61 93 -640
2018-05-20 20:44:12 GMT 33.106556 -111.766777 5,000 65 90 -832
2018-05-20 20:44:03 GMT 33.105671 -111.771202 5,000 85 84 -256
2018-05-20 20:44:00 GMT 33.105606 -111.771935 5,000 84 86 832
2018-05-20 20:43:48 GMT 33.107529 -111.778091 4,700 167 117 -1088
2018-05-20 20:43:42 GMT 33.110687 -111.777924 5,000 192 89 -4544
2018-05-20 20:43:38 GMT 33.112095 -111.777931 5,300 161 57 -4608
2018-05-20 20:43:32 GMT 33.113400 -111.778770 5,400 151 50 128
2018-05-20 20:43:27 GMT 33.114285 -111.779274 5,400 163 52 384
2018-05-20 20:43:21 GMT 33.115768 -111.779076 5,400 221 56 -128
2018-05-20 20:43:16 GMT 33.116501 -111.777977 5,400 256 56 -448
2018-05-20 20:43:06 GMT 33.114899 -111.775070 5,400 349 67 -320
2018-05-20 20:43:00 GMT 33.113022 -111.774796 5,500 357 67 64
2018-05-20 20:42:54 GMT 33.111145 -111.774681 5,500 356 67 -320
2018-05-20 20:42:47 GMT 33.109451 -111.774521 5,500 356 66 -64
2018-05-20 20:42:44 GMT 33.108322 -111.774399 5,500 356 69 0
2018-05-20 20:42:36 GMT 33.105858 -111.774231 5,500 0 78 -128
2018-05-20 20:42:33 GMT 33.104553 -111.774178 5,500 0 87 128
2018-05-20 20:42:25 GMT 33.101257 -111.774246 5,500 0 105 256
2018-05-20 20:42:22 GMT 33.099518 -111.774246 5,500 0 106 384
2018-05-20 20:42:15 GMT 33.096085 -111.774246 5,500 0 106 -64
2018-05-20 20:42:10 GMT 33.093658 -111.774178 5,500 0 105 256
2018-05-20 20:42:04 GMT 33.090866 -111.774231 5,400 0 108 320
2018-05-20 20:42:01 GMT 33.088623 -111.774185 5,400 0 106 320
2018-05-20 20:41:53 GMT 33.085281 -111.774117 5,300 1 112 640
2018-05-20 20:41:50 GMT 33.083046 -111.774734 5,300 30 107 -128
2018-05-20 20:41:44 GMT 33.081207 -111.777321 5,400 77 96 -384
2018-05-20 20:41:39 GMT 33.081299 -111.779625 5,400 114 85 576
2018-05-20 20:41:31 GMT 33.083233 -111.782303 5,300 170 75 320
2018-05-20 20:41:26 GMT 33.084412 -111.782646 5,300 173 75 448
2018-05-20 20:41:20 GMT 33.086655 -111.782539 5,200 189 74 768
2018-05-20 20:41:15 GMT 33.088303 -111.782097 5,100 196 77 512
2018-05-20 20:41:09 GMT 33.090309 -111.781403 5,100 196 76 960
2018-05-20 20:41:04 GMT 33.092171 -111.780846 5,000 193 80 768
2018-05-20 20:40:54 GMT 33.095615 -111.778885 4,900 218 79 960
2018-05-20 20:40:50 GMT 33.096870 -111.777702 4,800 222 82 960
2018-05-20 20:40:47 GMT 33.097431 -111.777084 4,800 226 82 448
2018-05-20 20:40:42 GMT 33.098648 -111.775452 4,800 230 76 0
2018-05-20 20:40:38 GMT 33.099758 -111.773949 4,700 229 74 1280
2018-05-20 20:40:32 GMT 33.101212 -111.771713 4,600 241 94 256
2018-05-20 20:40:26 GMT 33.102631 -111.769577 4,600 218 84 -1280
2018-05-20 20:40:21 GMT 33.104462 -111.769295 4,600 176 70 0
2018-05-20 20:40:16 GMT 33.105904 -111.769409 4,600 177 63 -64
2018-05-20 20:40:09 GMT 33.108139 -111.769577 4,600 176 61 -2304
2018-05-20 20:40:06 GMT 33.108719 -111.769630 4,800 173 38 -2112
2018-05-20 20:39:59 GMT 33.110138 -111.769791 4,800 172 52 64
2018-05-20 20:39:56 GMT 33.111073 -111.769974 4,800 169 54 192
2018-05-20 20:39:48 GMT 33.112839 -111.770401 4,800 170 55 -448
2018-05-20 20:39:44 GMT 33.113754 -111.770561 4,800 171 53 -512
2018-05-20 20:39:39 GMT 33.115398 -111.770699 4,900 177 50 -64
2018-05-20 20:39:34 GMT 33.116238 -111.770752 4,900 178 48 -192
2018-05-20 20:39:24 GMT 33.118423 -111.771004 4,900 175 40 -576
2018-05-20 20:39:16 GMT 33.119797 -111.771225 5,000 170 42 -512
2018-05-20 20:39:12 GMT 33.120426 -111.771317 5,000 173 42 -768
2018-05-20 20:39:02 GMT 33.122520 -111.771652 5,100 173 50 -256
2018-05-20 20:38:52 GMT 33.125782 -111.772156 5,200 173 76 -128
2018-05-20 20:38:44 GMT 33.128853 -111.772659 5,200 168 89 256
2018-05-20 20:38:41 GMT 33.129913 -111.772926 5,200 169 91 384
2018-05-20 20:38:33 GMT 33.132843 -111.773529 5,200 171 85 -128
2018-05-20 20:38:30 GMT 33.134022 -111.773781 5,200 171 85 -256
2018-05-20 20:38:24 GMT 33.136230 -111.774132 5,200 171 84 -256
2018-05-20 20:38:20 GMT 33.138382 -111.774460 5,100 174 86 1216
2018-05-20 20:38:12 GMT 33.141541 -111.774681 5,000 176 90 64
2018-05-20 20:38:09 GMT 33.142548 -111.774796 5,000 178 88 448
2018-05-20 20:38:01 GMT 33.145798 -111.774681 5,000 192 81 384
2018-05-20 20:37:58 GMT 33.146824 -111.774399 5,000 201 80 320
2018-05-20 20:37:49 GMT 33.149414 -111.772598 4,900 214 75 512
2018-05-20 20:37:46 GMT 33.150406 -111.771767 4,900 216 76 640
2018-05-20 20:37:36 GMT 33.153305 -111.768806 4,800 222 82 704
2018-05-20 20:37:26 GMT 33.156879 -111.765938 4,700 205 90 0
2018-05-20 20:37:23 GMT 33.157562 -111.765511 4,700 205 90 0
2018-05-20 20:37:17 GMT 33.160217 -111.764359 4,700 201 93 832
2018-05-20 20:37:13 GMT 33.161362 -111.763809 4,700 200 93 512
2018-05-20 20:37:10 GMT 33.162605 -111.763351 4,600 192 91 192
2018-05-20 20:37:06 GMT 33.164841 -111.763039 4,600 177 88 -512
2018-05-20 20:37:03 GMT 33.166122 -111.763260 4,700 166 85 -512
2018-05-20 20:37:00 GMT 33.166653 -111.763527 4,700 156 87 -448
2018-05-20 20:36:55 GMT 33.168514 -111.765427 4,600 131 91 320
2018-05-20 20:36:52 GMT 33.169235 -111.766388 4,600 137 90 448
2018-05-20 20:36:41 GMT 33.173309 -111.769028 4,600 155 86 -384
2018-05-20 20:36:33 GMT 33.176147 -111.770561 4,600 155 82 192
2018-05-20 20:36:29 GMT 33.177315 -111.771202 4,600 155 84 576
2018-05-20 20:36:23 GMT 33.179901 -111.772537 4,500 155 90 1664
2018-05-20 20:36:19 GMT 33.181549 -111.773361 4,400 158 92 384
2018-05-20 20:36:12 GMT 33.184250 -111.774681 4,400 157 88 128
2018-05-20 20:36:08 GMT 33.185760 -111.775452 4,400 156 89 -64
2018-05-20 20:36:01 GMT 33.188278 -111.777046 4,500 149 83 -896
2018-05-20 20:35:58 GMT 33.188736 -111.777374 4,500 150 80 -832
2018-05-20 20:35:55 GMT 33.189651 -111.778038 4,500 151 77 704
2018-05-20 20:35:48 GMT 33.192257 -111.779610 4,500 149 93 -960
2018-05-20 20:35:45 GMT 33.193542 -111.780563 4,500 148 89 320
2018-05-20 20:35:38 GMT 33.195889 -111.782471 4,500 143 84 -64
2018-05-20 20:35:34 GMT 33.197159 -111.783585 4,500 145 79 -128
2018-05-20 20:35:27 GMT 33.199196 -111.785217 4,500 148 74 768
2018-05-20 20:35:23 GMT 33.200359 -111.786057 4,400 148 74 832
2018-05-20 20:35:16 GMT 33.202408 -111.787567 4,300 146 76 1088
2018-05-20 20:35:11 GMT 33.203796 -111.788635 4,300 146 77 768
2018-05-20 20:35:05 GMT 33.205536 -111.790115 4,200 142 75 1088
2018-05-20 20:35:00 GMT 33.206955 -111.791489 4,100 138 78 1152
2018-05-20 20:34:54 GMT 33.208458 -111.793060 4,000 140 76 896
2018-05-20 20:34:49 GMT 33.209854 -111.794632 3,900 133 77 1472
2018-05-20 20:34:44 GMT 33.211212 -111.796379 3,800 131 75 704
2018-05-20 20:34:39 GMT 33.212494 -111.798141 3,700 128 73 960
2018-05-20 20:34:32 GMT 33.213577 -111.799957 3,600 122 78 1600
2018-05-20 20:34:27 GMT 33.214558 -111.801979 3,600 122 84 -320
2018-05-20 20:34:23 GMT 33.215767 -111.803993 3,600 128 76 640
2018-05-20 20:34:16 GMT 33.217072 -111.805840 3,500 129 79 1216
2018-05-20 20:34:11 GMT 33.218235 -111.807472 3,400 127 80 960
2018-05-20 20:34:05 GMT 33.219543 -111.809677 3,300 127 78 832
2018-05-20 20:33:58 GMT 33.221306 -111.812119 3,200 130 80 1408
2018-05-20 20:33:55 GMT 33.222282 -111.813469 3,100 129 83 768
2018-05-20 20:33:50 GMT 33.223263 -111.814926 3,000 127 82 896
2018-05-20 20:33:44 GMT 33.224751 -111.817390 2,900 127 80 192
2018-05-20 20:33:39 GMT 33.225777 -111.818901 3,000 135 77 256
2018-05-20 20:33:32 GMT 33.228008 -111.820526 2,900 165 73 320
2018-05-20 20:33:29 GMT 33.229019 -111.820602 2,900 181 73 512
2018-05-20 20:33:21 GMT 33.231548 -111.820473 2,900 179 73 1024
2018-05-20 20:33:17 GMT 33.232616 -111.820526 2,800 177 73 640
2018-05-20 20:33:10 GMT 33.235199 -111.820717 2,800 175 71 320
2018-05-20 20:33:07 GMT 33.236252 -111.820824 2,700 175 71 192
2018-05-20 20:32:59 GMT 33.238857 -111.821091 2,600 175 73 1472
2018-05-20 20:32:56 GMT 33.239914 -111.821213 2,600 174 74 1344
2018-05-20 20:32:48 GMT 33.242676 -111.821709 2,400 171 71 1344
2018-05-20 20:32:45 GMT 33.243622 -111.821815 2,400 173 71 1408
2018-05-20 20:32:38 GMT 33.246166 -111.822098 2,200 174 74 640
2018-05-20 20:32:35 GMT 33.247234 -111.822212 2,200 173 74 448
2018-05-20 20:32:25 GMT 33.250214 -111.822693 2,100 172 67 640
2018-05-20 20:32:22 GMT 33.251007 -111.822830 2,100 171 67 768
2018-05-20 20:32:14 GMT 33.253845 -111.823441 1,900 172 71 768
2018-05-20 20:32:11 GMT 33.254517 -111.823517 1,900 172 72 960
2018-05-20 20:32:05 GMT 33.257034 -111.823845 1,800 179 70 960
2018-05-20 20:32:01 GMT 33.258038 -111.823837 1,800 188 70 960
2018-05-20 20:31:54 GMT 33.260597 -111.823166 1,700 198 74 960
2018-05-20 20:31:51 GMT 33.261574 -111.822716 1,600 205 76 704
2018-05-20 20:31:43 GMT 33.264133 -111.820526 1,500 228 73 832
We lost coverage of the aircraft here for a total of 121 minutes
2018-05-20 18:31:12 GMT 33.275352 -111.800743 1,300 231 70 -640
2018-05-20 18:31:07 GMT 33.276352 -111.799294 1,300 229 70 -640
2018-05-20 18:31:01 GMT 33.277401 -111.797882 1,500 232 81 -704
2018-05-20 18:30:56 GMT 33.278870 -111.795776 1,400 229 74 -576
2018-05-20 18:30:50 GMT 33.280148 -111.794128 1,500 228 78 -512
2018-05-20 18:30:45 GMT 33.281406 -111.792389 1,500 232 81 -704
2018-05-20 18:30:39 GMT 33.282715 -111.790230 1,600 240 80 -1088
2018-05-20 18:30:34 GMT 33.283592 -111.788246 1,700 246 80 -704
2018-05-20 18:30:28 GMT 33.284454 -111.785561 1,800 254 79 -896
2018-05-20 18:30:23 GMT 33.284897 -111.783646 1,800 256 76 -1088
2018-05-20 18:30:19 GMT 33.285187 -111.782265 1,900 259 73 -960
2018-05-20 18:30:16 GMT 33.285370 -111.780998 1,900 261 76 448
2018-05-20 18:30:12 GMT 33.285690 -111.779076 1,900 258 84 -256
2018-05-20 18:30:08 GMT 33.285965 -111.777649 1,900 260 84 -896
2018-05-20 18:30:05 GMT 33.286194 -111.775780 2,000 270 82 -1152
2018-05-20 18:30:01 GMT 33.286011 -111.774025 2,000 286 81 -832
2018-05-20 18:29:57 GMT 33.285595 -111.772774 2,100 303 81 -704
2018-05-20 18:29:53 GMT 33.284245 -111.771149 2,100 337 86 -576
2018-05-20 18:29:49 GMT 33.282757 -111.770699 2,200 0 89 -512
2018-05-20 18:29:46 GMT 33.281872 -111.770752 2,200 13 91 -384
2018-05-20 18:29:42 GMT 33.279915 -111.771873 2,200 39 96 -320
2018-05-20 18:29:37 GMT 33.278610 -111.773445 2,200 52 101 512
2018-05-20 18:29:30 GMT 33.276627 -111.776772 2,200 57 107 320
2018-05-20 18:29:26 GMT 33.275345 -111.779243 2,200 58 109 128
2018-05-20 18:29:16 GMT 33.273071 -111.783646 2,200 59 108 192
2018-05-20 18:29:13 GMT 33.272324 -111.785172 2,200 59 108 448
2018-05-20 18:29:08 GMT 33.270699 -111.788353 2,100 58 109 128
2018-05-20 18:29:03 GMT 33.269440 -111.790886 2,100 57 106 0
2018-05-20 18:28:55 GMT 33.267288 -111.794456 2,100 51 105 64
2018-05-20 18:28:51 GMT 33.266045 -111.796371 2,100 53 105 -64
2018-05-20 18:28:43 GMT 33.263992 -111.799515 2,100 50 103 -192
2018-05-20 18:28:39 GMT 33.262596 -111.801361 2,100 46 103 128
2018-05-20 18:28:34 GMT 33.260468 -111.803795 2,100 38 103 -512
2018-05-20 18:28:29 GMT 33.258453 -111.805397 2,200 27 105 192
2018-05-20 18:28:23 GMT 33.255615 -111.806541 2,100 4 110 320
2018-05-20 18:28:18 GMT 33.252914 -111.806519 2,100 358 114 -512
2018-05-20 18:28:12 GMT 33.249847 -111.806435 2,200 0 115 128
2018-05-20 18:28:05 GMT 33.246826 -111.806381 2,100 0 119 320
2018-05-20 18:28:01 GMT 33.243931 -111.806351 2,100 358 124 -384
2018-05-20 18:27:55 GMT 33.240189 -111.805992 2,200 354 122 -960
2018-05-20 18:27:49 GMT 33.237671 -111.805611 2,300 352 125 -448
2018-05-20 18:27:42 GMT 33.233368 -111.804787 2,300 350 128 -320
2018-05-20 18:27:39 GMT 33.230896 -111.804161 2,400 348 133 -640
2018-05-20 18:27:32 GMT 33.226662 -111.802933 2,400 343 135 -512
2018-05-20 18:27:28 GMT 33.224609 -111.802086 2,500 342 133 -512
2018-05-20 18:27:17 GMT 33.218124 -111.799454 2,600 338 131 -320
2018-05-20 18:27:09 GMT 33.213577 -111.797096 2,600 336 133 0
2018-05-20 18:27:05 GMT 33.211948 -111.796204 2,600 334 135 -192
2018-05-20 18:26:57 GMT 33.206921 -111.792892 2,700 330 136 -448
2018-05-20 18:26:53 GMT 33.205032 -111.791603 2,700 327 134 -384
2018-05-20 18:26:44 GMT 33.200359 -111.787910 2,700 326 134 0
2018-05-20 18:26:34 GMT 33.195702 -111.784042 2,700 325 132 -64
2018-05-20 18:26:31 GMT 33.194118 -111.782692 2,700 328 131 -192
2018-05-20 18:26:24 GMT 33.189331 -111.780121 2,800 346 130 -384
2018-05-20 18:26:19 GMT 33.186996 -111.779671 2,800 355 128 -448
2018-05-20 18:26:11 GMT 33.182156 -111.780228 2,800 16 122 -128
2018-05-20 18:26:00 GMT 33.177128 -111.783310 2,700 32 122 384
2018-05-20 18:25:53 GMT 33.173405 -111.786446 2,700 38 127 384
2018-05-20 18:25:49 GMT 33.172073 -111.787704 2,600 39 127 256
2018-05-20 18:25:43 GMT 33.169029 -111.790710 2,600 40 126 -320
2018-05-20 18:25:38 GMT 33.167084 -111.792755 2,700 41 123 -256
2018-05-20 18:25:33 GMT 33.164234 -111.795753 2,700 42 126 -64
2018-05-20 18:25:27 GMT 33.162048 -111.798195 2,700 44 129 -320
2018-05-20 18:25:21 GMT 33.159206 -111.801582 2,800 45 130 -640
2018-05-20 18:25:16 GMT 33.157333 -111.803909 2,800 46 128 -448
2018-05-20 18:25:05 GMT 33.152920 -111.809654 2,900 51 125 -768
2018-05-20 18:24:58 GMT 33.150269 -111.813805 3,000 52 122 -768
2018-05-20 18:24:54 GMT 33.148911 -111.815933 3,000 53 121 -832
2018-05-20 18:24:46 GMT 33.146667 -111.819778 3,100 56 119 -192
2018-05-20 18:24:43 GMT 33.145477 -111.822037 3,100 56 119 -256
2018-05-20 18:24:31 GMT 33.141747 -111.828712 3,200 54 124 -448
2018-05-20 18:24:23 GMT 33.139160 -111.833237 3,200 57 120 -512
2018-05-20 18:24:20 GMT 33.138351 -111.834770 3,200 60 120 -128
2018-05-20 18:24:12 GMT 33.136368 -111.839615 3,300 67 118 -1088
2018-05-20 18:24:08 GMT 33.135727 -111.841591 3,300 72 115 -1024
2018-05-20 18:24:01 GMT 33.134583 -111.846092 3,400 73 112 0
2018-05-20 18:23:57 GMT 33.133881 -111.848892 3,400 73 120 512
2018-05-20 18:23:50 GMT 33.132858 -111.852928 3,400 74 130 -448
2018-05-20 18:23:46 GMT 33.132202 -111.856369 3,500 79 131 -1216
2018-05-20 18:23:38 GMT 33.131599 -111.861053 3,600 83 130 -1280
2018-05-20 18:23:34 GMT 33.131367 -111.864136 3,700 84 128 -1152
2018-05-20 18:23:27 GMT 33.130947 -111.868507 3,800 82 129 -1216
2018-05-20 18:23:22 GMT 33.130508 -111.872299 4,000 82 129 -1088
2018-05-20 18:23:16 GMT 33.130016 -111.876640 4,000 83 131 -320
2018-05-20 18:23:11 GMT 33.129684 -111.880371 4,000 84 132 -512
2018-05-20 18:23:06 GMT 33.129272 -111.885040 4,100 84 131 -384
2018-05-20 18:23:01 GMT 33.128998 -111.888390 4,100 83 129 -192
2018-05-20 18:22:55 GMT 33.128677 -111.892677 4,100 85 127 0
2018-05-20 18:22:48 GMT 33.128357 -111.896576 4,100 83 128 -64
2018-05-20 18:22:45 GMT 33.128082 -111.899155 4,100 82 130 192
2018-05-20 18:22:41 GMT 33.127785 -111.901581 4,100 81 132 256
2018-05-20 18:22:38 GMT 33.127457 -111.904495 4,100 81 135 -256
2018-05-20 18:22:32 GMT 33.126938 -111.909317 4,200 82 132 -704
2018-05-20 18:22:26 GMT 33.126572 -111.912903 4,200 84 128 -448
2018-05-20 18:22:23 GMT 33.126434 -111.914642 4,200 84 128 -192
2018-05-20 18:22:20 GMT 33.126202 -111.917107 4,200 84 127 -64
2018-05-20 18:22:15 GMT 33.125874 -111.920975 4,200 83 125 -320
2018-05-20 18:22:09 GMT 33.125427 -111.925034 4,200 82 126 -64
2018-05-20 18:22:03 GMT 33.124943 -111.928825 4,300 80 126 -320
2018-05-20 18:21:58 GMT 33.124290 -111.933083 4,300 80 125 0
2018-05-20 18:21:52 GMT 33.123779 -111.937119 4,300 80 125 192
2018-05-20 18:21:46 GMT 33.123222 -111.940536 4,300 80 126 256
2018-05-20 18:21:42 GMT 33.122849 -111.943344 4,200 82 124 128
2018-05-20 18:21:39 GMT 33.122616 -111.945412 4,200 84 122 -192
2018-05-20 18:21:35 GMT 33.122337 -111.948723 4,300 84 122 -320
2018-05-20 18:21:30 GMT 33.122196 -111.950851 4,300 84 123 -64
2018-05-20 18:21:27 GMT 33.121948 -111.953430 4,300 83 123 256
2018-05-20 18:21:22 GMT 33.121639 -111.956566 4,200 82 125 128
2018-05-20 18:21:19 GMT 33.121407 -111.958702 4,200 80 125 64
2018-05-20 18:21:16 GMT 33.121174 -111.960327 4,200 80 125 -64
2018-05-20 18:21:12 GMT 33.120613 -111.964134 4,300 77 126 -320
2018-05-20 18:21:08 GMT 33.120117 -111.966560 4,300 75 125 -320
2018-05-20 18:21:05 GMT 33.119843 -111.967880 4,300 74 125 -320
2018-05-20 18:20:59 GMT 33.118797 -111.972206 4,300 72 122 -128
2018-05-20 18:20:55 GMT 33.117912 -111.975456 4,300 71 120 -64
2018-05-20 18:20:49 GMT 33.116913 -111.979141 4,300 71 120 256
2018-05-20 18:20:46 GMT 33.116379 -111.981010 4,300 70 118 384
2018-05-20 18:20:42 GMT 33.115860 -111.982651 4,300 67 117 384
2018-05-20 18:20:35 GMT 33.114002 -111.987289 4,200 64 122 512
2018-05-20 18:20:32 GMT 33.113068 -111.989578 4,200 65 123 256
2018-05-20 18:20:23 GMT 33.110840 -111.995079 4,200 61 125 256
2018-05-20 18:20:20 GMT 33.110092 -111.996590 4,200 58 126 384
2018-05-20 18:20:12 GMT 33.107811 -112.000458 4,100 48 128 576
2018-05-20 18:20:08 GMT 33.105698 -112.002922 4,100 39 132 64
2018-05-20 18:20:01 GMT 33.102631 -112.005943 4,100 40 131 -128
2018-05-20 18:19:57 GMT 33.100365 -112.008247 4,100 41 129 0
2018-05-20 18:19:50 GMT 33.097733 -112.011108 4,100 43 130 192
2018-05-20 18:19:44 GMT 33.095150 -112.014023 4,100 45 133 128
2018-05-20 18:19:40 GMT 33.093063 -112.016708 4,100 47 132 -576
2018-05-20 18:19:34 GMT 33.090408 -112.020119 4,100 47 127 -256
2018-05-20 18:19:29 GMT 33.088577 -112.022476 4,100 47 125 576
2018-05-20 18:19:22 GMT 33.085968 -112.025833 4,100 47 129 -64
2018-05-20 18:19:18 GMT 33.084000 -112.028305 4,100 43 129 -192
2018-05-20 18:19:10 GMT 33.080978 -112.031540 4,100 43 130 384
2018-05-20 18:19:07 GMT 33.079182 -112.033646 4,100 43 132 256
2018-05-20 18:19:00 GMT 33.075829 -112.037170 4,100 39 131 64
2018-05-20 18:18:56 GMT 33.073921 -112.039024 4,100 37 133 384
2018-05-20 18:18:45 GMT 33.068382 -112.044289 4,000 42 141 -640
2018-05-20 18:18:34 GMT 33.063766 -112.050491 4,200 59 126 -768
2018-05-20 18:18:30 GMT 33.063030 -112.052307 4,200 71 121 -256
2018-05-20 18:18:23 GMT 33.062283 -112.057129 4,200 93 116 512
2018-05-20 18:18:15 GMT 33.063496 -112.062004 4,100 124 113 256
2018-05-20 18:18:11 GMT 33.064545 -112.063736 4,100 131 111 192
2018-05-20 18:18:03 GMT 33.068253 -112.066757 4,100 160 105 384
2018-05-20 18:18:00 GMT 33.069500 -112.067162 4,100 171 104 448
2018-05-20 18:17:50 GMT 33.073837 -112.066643 4,000 204 106 320
2018-05-20 18:17:47 GMT 33.075119 -112.065933 4,000 208 107 320
2018-05-20 18:17:40 GMT 33.078297 -112.063240 4,000 224 113 256
2018-05-20 18:17:37 GMT 33.079285 -112.062141 4,000 228 114 192
2018-05-20 18:17:29 GMT 33.082535 -112.057915 3,900 228 117 256
2018-05-20 18:17:26 GMT 33.083542 -112.056648 3,900 227 118 384
2018-05-20 18:17:17 GMT 33.087067 -112.052307 3,900 225 120 128
2018-05-20 18:17:13 GMT 33.088074 -112.051132 3,900 224 118 -64
2018-05-20 18:17:06 GMT 33.091194 -112.047485 3,900 225 114 -512
2018-05-20 18:17:02 GMT 33.092403 -112.046082 3,900 225 113 -512
2018-05-20 18:16:55 GMT 33.095524 -112.042557 4,000 224 104 0
2018-05-20 18:16:51 GMT 33.096588 -112.041321 3,900 224 104 1024
2018-05-20 18:16:40 GMT 33.100689 -112.036499 3,700 225 122 256
2018-05-20 18:16:32 GMT 33.103958 -112.032700 3,700 224 118 0
2018-05-20 18:16:27 GMT 33.106293 -112.030167 3,700 222 114 -512
2018-05-20 18:16:20 GMT 33.108696 -112.027588 3,700 222 107 640
2018-05-20 18:16:14 GMT 33.110779 -112.025612 3,600 218 107 192
2018-05-20 18:16:09 GMT 33.112793 -112.023666 3,600 222 101 384
2018-05-20 18:16:03 GMT 33.114532 -112.021767 3,600 223 99 448
2018-05-20 18:15:58 GMT 33.116611 -112.019516 3,500 223 99 640
2018-05-20 18:15:54 GMT 33.117962 -112.018005 3,500 221 100 832
2018-05-20 18:15:47 GMT 33.120712 -112.015396 3,400 219 106 1408
2018-05-20 18:15:36 GMT 33.125130 -112.011444 3,200 216 113 192
2018-05-20 18:15:23 GMT 33.130096 -112.007317 3,300 216 109 -384
2018-05-20 18:15:13 GMT 33.134766 -112.003654 3,400 213 103 -128
2018-05-20 18:15:02 GMT 33.139515 -112.000458 3,400 206 106 0
2018-05-20 18:14:59 GMT 33.140350 -112.000015 3,400 203 106 0
2018-05-20 18:14:55 GMT 33.142681 -111.999054 3,400 190 110 -128
2018-05-20 18:14:51 GMT 33.144680 -111.998665 3,400 186 110 -448
2018-05-20 18:14:45 GMT 33.147491 -111.998367 3,500 188 108 -576
2018-05-20 18:14:38 GMT 33.150593 -111.997993 3,500 184 110 -192
2018-05-20 18:14:32 GMT 33.154129 -111.997704 3,500 184 108 -128
2018-05-20 18:14:27 GMT 33.156143 -111.997597 3,500 185 107 -64
2018-05-20 18:14:19 GMT 33.160370 -111.997322 3,600 178 105 -256
2018-05-20 18:14:15 GMT 33.162003 -111.997375 3,600 177 105 -320
2018-05-20 18:14:10 GMT 33.164417 -111.997429 3,600 181 105 192
2018-05-20 18:14:05 GMT 33.167496 -111.997322 3,600 184 109 384
2018-05-20 18:13:59 GMT 33.170563 -111.997101 3,500 184 112 0
2018-05-20 18:13:52 GMT 33.173676 -111.996277 3,600 205 113 -512
2018-05-20 18:13:46 GMT 33.176384 -111.993896 3,600 232 110 -512
2018-05-20 18:13:42 GMT 33.177750 -111.991280 3,600 248 110 -448
2018-05-20 18:13:36 GMT 33.178432 -111.988350 3,700 264 111 -320
2018-05-20 18:13:30 GMT 33.178432 -111.984879 3,700 279 114 320
2018-05-20 18:13:25 GMT 33.177795 -111.981720 3,600 292 119 832
2018-05-20 18:13:19 GMT 33.176056 -111.977928 3,600 307 125 192
2018-05-20 18:13:14 GMT 33.174149 -111.975403 3,600 317 124 -896
2018-05-20 18:13:07 GMT 33.171387 -111.972824 3,700 328 117 -640
2018-05-20 18:13:03 GMT 33.169327 -111.971451 3,700 341 117 -64
2018-05-20 18:12:57 GMT 33.165722 -111.970024 3,700 345 117 256
2018-05-20 18:12:53 GMT 33.164093 -111.969460 3,700 343 118 448
2018-05-20 18:12:46 GMT 33.159851 -111.967659 3,700 343 121 -192
2018-05-20 18:12:42 GMT 33.158340 -111.967163 3,700 352 119 -960
2018-05-20 18:12:34 GMT 33.153488 -111.966064 3,800 353 119 -832
2018-05-20 18:12:31 GMT 33.152390 -111.965897 3,800 353 120 -768
2018-05-20 18:12:27 GMT 33.150082 -111.965591 3,900 356 120 -1216
2018-05-20 18:12:23 GMT 33.147034 -111.965515 4,000 1 119 -1344
2018-05-20 18:12:20 GMT 33.145893 -111.965591 4,000 4 117 -1088
2018-05-20 18:12:16 GMT 33.143234 -111.966064 4,100 11 118 -640
2018-05-20 18:12:11 GMT 33.140579 -111.966835 4,100 16 120 -576
2018-05-20 18:12:05 GMT 33.137833 -111.968040 4,200 23 125 -1216
2018-05-20 18:11:59 GMT 33.134857 -111.969742 4,300 30 124 -1280
2018-05-20 18:11:48 GMT 33.129879 -111.974228 4,500 47 121 -1152
2018-05-20 18:11:38 GMT 33.126526 -111.980507 4,700 69 117 -832
2018-05-20 18:11:30 GMT 33.125504 -111.984764 4,800 78 120 -384
2018-05-20 18:11:27 GMT 33.125034 -111.987228 4,900 78 117 -832
2018-05-20 18:11:23 GMT 33.124756 -111.988800 4,900 78 120 -384
2018-05-20 18:11:16 GMT 33.123917 -111.994354 5,000 82 121 -256
2018-05-20 18:11:13 GMT 33.123779 -111.995865 5,000 85 121 -256
2018-05-20 18:11:02 GMT 33.123547 -112.003090 5,000 88 119 -256
2018-05-20 18:10:54 GMT 33.123592 -112.008919 5,000 98 109 128
2018-05-20 18:10:51 GMT 33.123825 -112.010040 5,000 104 107 128
2018-05-20 18:10:43 GMT 33.125839 -112.014511 4,900 133 105 320
2018-05-20 18:10:39 GMT 33.126945 -112.015877 4,900 135 104 -64
2018-05-20 18:10:31 GMT 33.130016 -112.018509 4,900 154 98 256
2018-05-20 18:10:26 GMT 33.132156 -112.019402 4,900 173 97 448
2018-05-20 18:10:20 GMT 33.134857 -112.019569 4,800 189 99 512
2018-05-20 18:10:16 GMT 33.136581 -112.019127 4,800 202 101 576
2018-05-20 18:10:07 GMT 33.140213 -112.016327 4,700 227 106 256
2018-05-20 18:10:01 GMT 33.142456 -112.013359 4,700 232 103 128
2018-05-20 18:09:56 GMT 33.143555 -112.011711 4,700 231 102 64
2018-05-20 18:09:46 GMT 33.146530 -112.007042 4,700 236 97 256
2018-05-20 18:09:36 GMT 33.149368 -112.002151 4,600 240 103 640
2018-05-20 18:09:28 GMT 33.151199 -111.998306 4,500 238 104 320
2018-05-20 18:09:23 GMT 33.152409 -111.996307 4,500 230 105 704
2018-05-20 18:09:13 GMT 33.156273 -111.991661 4,400 227 115 256
2018-05-20 18:09:03 GMT 33.159111 -111.986893 4,400 245 117 128
2018-05-20 18:09:00 GMT 33.159718 -111.985153 4,400 251 117 0
2018-05-20 18:08:53 GMT 33.160507 -111.980331 4,400 268 121 -192
2018-05-20 18:08:49 GMT 33.160507 -111.977646 4,400 274 121 -384
2018-05-20 18:08:42 GMT 33.159859 -111.973328 4,400 289 118 -256
2018-05-20 18:08:38 GMT 33.159073 -111.970901 4,400 299 119 192
2018-05-20 18:08:31 GMT 33.156925 -111.967049 4,400 310 120 256
2018-05-20 18:08:27 GMT 33.155045 -111.964584 4,400 315 119 320
2018-05-20 18:08:20 GMT 33.152435 -111.961723 4,300 322 120 448
2018-05-20 18:08:16 GMT 33.150314 -111.959877 4,300 327 122 896
2018-05-20 18:08:08 GMT 33.146683 -111.957130 4,200 324 124 -64
2018-05-20 18:08:05 GMT 33.145065 -111.955627 4,200 319 121 -320
2018-05-20 18:07:52 GMT 33.141376 -111.949677 4,200 292 114 512
2018-05-20 18:07:41 GMT 33.140121 -111.942886 4,100 274 116 768
2018-05-20 18:07:31 GMT 33.140121 -111.935745 4,000 272 111 576
2018-05-20 18:07:20 GMT 33.139885 -111.928711 3,900 272 117 192
2018-05-20 18:07:09 GMT 33.139664 -111.921570 3,800 273 116 512
2018-05-20 18:07:06 GMT 33.139572 -111.919647 3,800 272 114 256
2018-05-20 18:06:57 GMT 33.139515 -111.913971 3,800 272 112 320
2018-05-20 18:06:54 GMT 33.139481 -111.913109 3,700 272 112 320
2018-05-20 18:06:44 GMT 33.139420 -111.906517 3,700 269 114 320
2018-05-20 18:06:34 GMT 33.139709 -111.899872 3,700 266 112 -64
2018-05-20 18:06:23 GMT 33.140350 -111.892784 3,700 263 115 128
2018-05-20 18:06:12 GMT 33.141174 -111.885971 3,600 260 119 64
2018-05-20 18:06:01 GMT 33.142494 -111.878822 3,600 256 122 0
2018-05-20 18:05:53 GMT 33.143284 -111.874001 3,600 256 122 0
2018-05-20 18:05:48 GMT 33.144032 -111.870918 3,600 247 121 -320
2018-05-20 18:05:38 GMT 33.146667 -111.865318 3,600 220 117 128
2018-05-20 18:05:34 GMT 33.148361 -111.863342 3,600 220 117 128
2018-05-20 18:05:28 GMT 33.151524 -111.861336 3,600 199 114 64
2018-05-20 18:05:17 GMT 33.157333 -111.860542 3,600 192 114 192
2018-05-20 18:05:09 GMT 33.161160 -111.859543 3,600 189 113 512
2018-05-20 18:05:06 GMT 33.163101 -111.859276 3,500 186 114 576
2018-05-20 18:04:55 GMT 33.168655 -111.858810 3,500 184 111 -512
2018-05-20 18:04:44 GMT 33.174427 -111.858475 3,500 185 115 384
2018-05-20 18:04:33 GMT 33.180340 -111.857857 3,500 185 110 -320
2018-05-20 18:04:23 GMT 33.185459 -111.857521 3,500 183 111 512
2018-05-20 18:04:20 GMT 33.186253 -111.857468 3,500 183 111 384
2018-05-20 18:04:10 GMT 33.191887 -111.857414 3,400 179 105 0
2018-05-20 18:03:59 GMT 33.197285 -111.857300 3,400 182 105 256
2018-05-20 18:03:50 GMT 33.201187 -111.857193 3,400 183 102 -64
2018-05-20 18:03:46 GMT 33.202927 -111.857079 3,400 182 99 128
2018-05-20 18:03:39 GMT 33.206318 -111.857018 3,300 178 99 320
2018-05-20 18:03:35 GMT 33.208179 -111.857079 3,300 179 101 768
2018-05-20 18:03:29 GMT 33.211529 -111.857079 3,200 182 104 256
2018-05-20 18:03:24 GMT 33.213718 -111.857018 3,200 180 105 704
2018-05-20 18:03:18 GMT 33.216660 -111.856918 3,200 183 105 448
2018-05-20 18:03:12 GMT 33.219353 -111.856796 3,100 182 105 896
2018-05-20 18:03:06 GMT 33.221867 -111.856735 3,100 185 103 -192
2018-05-20 18:03:03 GMT 33.223450 -111.856628 3,100 185 103 -192
2018-05-20 18:03:00 GMT 33.224892 -111.856461 3,100 185 99 -64
2018-05-20 18:02:56 GMT 33.227234 -111.856255 3,000 184 96 576
2018-05-20 18:02:50 GMT 33.229778 -111.856125 3,000 180 95 64
2018-05-20 18:02:43 GMT 33.232224 -111.856201 3,000 176 90 -128
2018-05-20 18:02:39 GMT 33.234528 -111.856461 3,000 170 83 256
2018-05-20 18:02:33 GMT 33.236298 -111.856857 3,000 168 80 384
2018-05-20 18:02:26 GMT 33.238670 -111.857414 2,900 175 76 256
2018-05-20 18:02:20 GMT 33.241104 -111.857468 2,900 177 76 640
2018-05-20 18:02:16 GMT 33.242661 -111.857574 2,800 177 77 576
2018-05-20 18:02:11 GMT 33.244164 -111.857689 2,800 175 77 512
2018-05-20 18:02:05 GMT 33.246632 -111.857803 2,700 183 78 576
2018-05-20 18:02:00 GMT 33.248016 -111.857742 2,700 183 78 448
2018-05-20 18:01:53 GMT 33.250900 -111.857193 2,600 201 80 832
2018-05-20 18:01:49 GMT 33.251984 -111.856567 2,600 234 86 192
2018-05-20 18:01:42 GMT 33.254562 -111.854500 2,400 226 86 896
2018-05-20 18:01:38 GMT 33.255432 -111.853287 2,400 234 86 192
2018-05-20 18:01:30 GMT 33.256500 -111.849846 2,300 261 84 704
2018-05-20 18:01:27 GMT 33.256638 -111.848671 2,300 260 85 640
2018-05-20 18:01:18 GMT 33.257198 -111.844688 2,100 258 85 1600
2018-05-20 18:01:15 GMT 33.257492 -111.843124 2,100 258 87 1600
2018-05-20 18:01:07 GMT 33.258221 -111.839417 1,900 257 87 768
2018-05-20 18:01:04 GMT 33.258499 -111.837906 1,900 257 87 768
2018-05-20 18:00:57 GMT 33.259460 -111.833900 1,800 254 82 512
2018-05-20 18:00:54 GMT 33.259525 -111.833588 1,800 253 81 640
2018-05-20 18:00:43 GMT 33.260834 -111.828789 1,700 251 81 320
We lost coverage of the aircraft here for a total of 32 minutes
2018-05-20 17:28:56 GMT 33.272514 -111.808197 1,300 230 64 -384
2018-05-20 17:28:48 GMT 33.272690 -111.807915 1,300 230 64 -256
2018-05-20 17:28:40 GMT 33.274513 -111.805336 1,300 230 65 -448
2018-05-20 17:28:27 GMT 33.276566 -111.802483 1,400 229 60 -64
2018-05-20 17:28:17 GMT 33.278687 -111.799568 1,400 231 62 -384
2018-05-20 17:28:06 GMT 33.280846 -111.796707 1,500 227 63 -512
2018-05-20 17:27:56 GMT 33.282803 -111.794296 1,600 223 66 -768
2018-05-20 17:27:53 GMT 33.283268 -111.793793 1,700 222 67 -640
2018-05-20 17:27:43 GMT 33.286240 -111.791275 1,700 207 69 -512
2018-05-20 17:27:32 GMT 33.289490 -111.790726 1,900 163 67 -448
2018-05-20 17:27:24 GMT 33.291927 -111.792389 1,900 140 71 -512
2018-05-20 17:27:21 GMT 33.292530 -111.793007 1,900 138 71 -384
2018-05-20 17:27:13 GMT 33.294434 -111.795174 2,000 134 68 -448
2018-05-20 17:27:09 GMT 33.295185 -111.796089 2,000 133 69 -448
2018-05-20 17:27:02 GMT 33.296860 -111.798248 2,000 125 73 -256
2018-05-20 17:26:58 GMT 33.297604 -111.799675 2,100 115 73 -320
2018-05-20 17:26:55 GMT 33.298050 -111.800941 2,100 99 75 -576
2018-05-20 17:26:51 GMT 33.298233 -111.802422 2,100 90 75 -256
2018-05-20 17:26:48 GMT 33.298187 -111.803299 2,100 82 75 64
2018-05-20 17:26:45 GMT 33.297977 -111.804382 2,100 60 77 -192
2018-05-20 17:26:39 GMT 33.296677 -111.806656 2,100 49 78 0
2018-05-20 17:26:35 GMT 33.295486 -111.808304 2,100 47 79 -192
2018-05-20 17:26:27 GMT 33.293381 -111.811050 2,200 48 77 -512
2018-05-20 17:26:23 GMT 33.292740 -111.811874 2,200 47 76 -640
2018-05-20 17:26:18 GMT 33.291321 -111.813683 2,300 46 76 -192
2018-05-20 17:26:15 GMT 33.290680 -111.814453 2,300 45 77 -64
2018-05-20 17:26:11 GMT 33.289925 -111.815369 2,300 45 80 64
2018-05-20 17:26:07 GMT 33.288391 -111.817146 2,300 45 87 -64
2018-05-20 17:26:04 GMT 33.287247 -111.818573 2,300 45 91 0
2018-05-20 17:26:01 GMT 33.286572 -111.819351 2,300 45 94 192
2018-05-20 17:25:56 GMT 33.285187 -111.821045 2,300 46 95 512
2018-05-20 17:25:52 GMT 33.283951 -111.822639 2,200 47 97 128
2018-05-20 17:25:48 GMT 33.283081 -111.823738 2,200 49 96 128
2018-05-20 17:25:45 GMT 33.281776 -111.825630 2,200 50 95 512
2018-05-20 17:25:41 GMT 33.280754 -111.827087 2,200 48 95 320
2018-05-20 17:25:38 GMT 33.279968 -111.828293 2,200 52 95 256
2018-05-20 17:25:33 GMT 33.278938 -111.829834 2,200 48 95 256
2018-05-20 17:25:29 GMT 33.277355 -111.831909 2,100 52 99 64
2018-05-20 17:25:26 GMT 33.276627 -111.833023 2,100 51 98 384
2018-05-20 17:25:22 GMT 33.275482 -111.834778 2,100 44 100 -320
2018-05-20 17:25:18 GMT 33.274143 -111.836670 2,100 47 100 0
2018-05-20 17:25:15 GMT 33.273354 -111.837738 2,100 46 100 -128
2018-05-20 17:25:07 GMT 33.270676 -111.840820 2,100 36 98 0
2018-05-20 17:25:04 GMT 33.269348 -111.841827 2,100 27 98 256
2018-05-20 17:24:59 GMT 33.267628 -111.842613 2,100 9 100 0
2018-05-20 17:24:55 GMT 33.265717 -111.842728 2,100 342 100 896
2018-05-20 17:24:52 GMT 33.263718 -111.842140 2,100 333 101 704
2018-05-20 17:24:48 GMT 33.262894 -111.841591 2,000 328 102 512
2018-05-20 17:24:38 GMT 33.259323 -111.838181 2,000 313 95 768
2018-05-20 17:24:27 GMT 33.257385 -111.833084 1,800 271 90 768
2018-05-20 17:24:23 GMT 33.257710 -111.830620 1,800 247 88 896
2018-05-20 17:24:16 GMT 33.259140 -111.827805 1,700 236 87 832
2018-05-20 17:24:11 GMT 33.260365 -111.825745 1,600 234 87 640
We lost coverage of the aircraft here for a total of 10 minutes
2018-05-20 17:14:23 GMT 33.271591 -111.809456 1,200 231 62 -320
2018-05-20 17:14:16 GMT 33.272690 -111.808029 1,300 229 61 -384
2018-05-20 17:14:11 GMT 33.273769 -111.806519 1,300 231 62 -320
2018-05-20 17:14:04 GMT 33.274933 -111.804832 1,300 230 61 -384
2018-05-20 17:13:59 GMT 33.275864 -111.803543 1,400 229 62 -256
2018-05-20 17:13:55 GMT 33.276810 -111.802261 1,400 231 62 -512
2018-05-20 17:13:48 GMT 33.278000 -111.800667 1,400 227 65 -128
2018-05-20 17:13:44 GMT 33.279053 -111.799294 1,500 225 67 -704
2018-05-20 17:13:37 GMT 33.280476 -111.797775 1,500 223 68 -576
2018-05-20 17:13:33 GMT 33.281639 -111.796539 1,600 218 71 -704
2018-05-20 17:13:25 GMT 33.283630 -111.795174 1,700 200 68 -256
2018-05-20 17:13:21 GMT 33.284866 -111.794785 1,700 184 67 -192
2018-05-20 17:13:14 GMT 33.287064 -111.795555 1,700 147 66 -512
2018-05-20 17:13:11 GMT 33.287830 -111.796257 1,700 144 66 0
2018-05-20 17:13:06 GMT 33.289413 -111.797607 1,700 141 72 -256
2018-05-20 17:13:03 GMT 33.289764 -111.797974 1,700 139 73 -192
2018-05-20 17:13:00 GMT 33.290588 -111.798798 1,800 138 75 -320
2018-05-20 17:12:54 GMT 33.292099 -111.800774 1,800 128 76 -192
2018-05-20 17:12:50 GMT 33.293060 -111.802315 1,800 119 77 -448
2018-05-20 17:12:42 GMT 33.293839 -111.805283 1,800 87 78 -640
2018-05-20 17:12:39 GMT 33.293510 -111.807358 1,900 70 78 -384
2018-05-20 17:12:32 GMT 33.292465 -111.809784 2,000 60 80 -576
2018-05-20 17:12:25 GMT 33.291412 -111.811928 2,000 58 82 -448
2018-05-20 17:12:19 GMT 33.290249 -111.814194 2,100 57 80 -832
2018-05-20 17:12:16 GMT 33.289307 -111.815880 2,100 56 82 -512
2018-05-20 17:12:08 GMT 33.287689 -111.818733 2,100 55 94 256
2018-05-20 17:12:02 GMT 33.285873 -111.821869 2,100 55 101 -128
2018-05-20 17:11:59 GMT 33.285141 -111.823135 2,100 53 106 -128
2018-05-20 17:11:55 GMT 33.284271 -111.824448 2,200 53 107 -320
2018-05-20 17:11:51 GMT 33.282940 -111.826637 2,200 52 104 -192
2018-05-20 17:11:47 GMT 33.281918 -111.828209 2,200 52 103 -192
2018-05-20 17:11:43 GMT 33.280567 -111.830223 2,200 51 101 -320
2018-05-20 17:11:36 GMT 33.278660 -111.833199 2,200 51 98 192
2018-05-20 17:11:33 GMT 33.277405 -111.834999 2,200 49 99 192
2018-05-20 17:11:29 GMT 33.276611 -111.836113 2,200 49 100 0
2018-05-20 17:11:25 GMT 33.275448 -111.837791 2,200 50 99 0
2018-05-20 17:11:22 GMT 33.274200 -111.839500 2,200 47 96 -256
2018-05-20 17:11:18 GMT 33.272827 -111.841148 2,200 42 95 128
2018-05-20 17:11:14 GMT 33.271816 -111.842224 2,200 36 95 0
2018-05-20 17:11:11 GMT 33.270493 -111.843239 2,200 17 95 128
2018-05-20 17:11:07 GMT 33.268845 -111.843948 2,200 7 96 256
2018-05-20 17:11:03 GMT 33.267719 -111.844070 2,200 348 99 896
2018-05-20 17:10:59 GMT 33.265503 -111.843567 2,100 332 101 640
2018-05-20 17:10:53 GMT 33.263344 -111.841942 2,100 324 100 448
2018-05-20 17:10:49 GMT 33.261482 -111.840202 2,000 321 98 192
2018-05-20 17:10:36 GMT 33.257896 -111.835381 1,900 293 90 768
2018-05-20 17:10:26 GMT 33.257858 -111.830383 1,800 243 86 768
2018-05-20 17:10:18 GMT 33.259552 -111.827255 1,700 234 83 640
2018-05-20 17:10:13 GMT 33.260422 -111.825935 1,700 232 84 768
We lost coverage of the aircraft here for a total of 5 minutes
2018-05-20 17:05:07 GMT 33.273167 -111.807304 1,300 229 62 -320
2018-05-20 17:05:03 GMT 33.273354 -111.807022 1,300 231 63 -512
2018-05-20 17:05:00 GMT 33.273678 -111.806625 1,300 229 64 -512
2018-05-20 17:04:56 GMT 33.274750 -111.805115 1,300 231 63 -320
2018-05-20 17:04:50 GMT 33.275803 -111.803635 1,400 229 65 -192
2018-05-20 17:04:43 GMT 33.277122 -111.801811 1,400 231 66 -192
2018-05-20 17:04:37 GMT 33.278458 -111.799950 1,400 229 63 -256
2018-05-20 17:04:32 GMT 33.279308 -111.798836 1,500 228 63 -960
2018-05-20 17:04:28 GMT 33.280106 -111.797867 1,500 225 64 -448
2018-05-20 17:04:25 GMT 33.280655 -111.797203 1,500 221 65 -192
2018-05-20 17:04:21 GMT 33.281754 -111.796158 1,500 218 66 -448
2018-05-20 17:04:13 GMT 33.283676 -111.794731 1,600 196 64 -704
2018-05-20 17:04:09 GMT 33.285175 -111.794464 1,700 182 65 -448
2018-05-20 17:04:04 GMT 33.286617 -111.794853 1,700 153 65 -192
2018-05-20 17:04:01 GMT 33.287132 -111.795250 1,700 151 66 -320
2018-05-20 17:03:57 GMT 33.288155 -111.796089 1,700 141 69 -384
2018-05-20 17:03:54 GMT 33.288803 -111.796768 1,700 141 69 -320
2018-05-20 17:03:51 GMT 33.289627 -111.797478 1,700 142 71 -256
2018-05-20 17:03:45 GMT 33.291740 -111.799568 1,800 137 67 -896
2018-05-20 17:03:40 GMT 33.292343 -111.800240 1,800 136 68 -448
2018-05-20 17:03:35 GMT 33.293610 -111.801651 1,900 135 70 -256
2018-05-20 17:03:32 GMT 33.294392 -111.802589 1,900 136 72 -128
2018-05-20 17:03:29 GMT 33.294907 -111.803207 1,900 136 74 0
2018-05-20 17:03:23 GMT 33.296394 -111.804947 1,900 126 77 -64
2018-05-20 17:03:19 GMT 33.297138 -111.806793 1,900 102 75 -512
2018-05-20 17:03:13 GMT 33.297180 -111.809677 1,900 74 76 0
2018-05-20 17:03:08 GMT 33.296539 -111.811211 2,000 54 79 -704
2018-05-20 17:03:01 GMT 33.294952 -111.813637 2,000 49 77 -576
2018-05-20 17:02:58 GMT 33.294022 -111.814926 2,100 49 77 -320
2018-05-20 17:02:52 GMT 33.293060 -111.816322 2,100 49 77 -320
2018-05-20 17:02:48 GMT 33.291916 -111.817970 2,100 51 80 -320
2018-05-20 17:02:45 GMT 33.291458 -111.818680 2,100 52 81 -320
2018-05-20 17:02:39 GMT 33.289673 -111.821320 2,200 51 83 -128
2018-05-20 17:02:36 GMT 33.288940 -111.822472 2,200 50 88 -128
2018-05-20 17:02:26 GMT 33.286060 -111.826469 2,200 49 100 128
2018-05-20 17:02:23 GMT 33.285503 -111.827309 2,200 49 100 -64
2018-05-20 17:02:15 GMT 33.282806 -111.830986 2,200 48 97 -128
2018-05-20 17:02:12 GMT 33.282349 -111.831650 2,200 50 96 -64
2018-05-20 17:02:02 GMT 33.279373 -111.836044 2,200 49 100 -256
2018-05-20 17:01:52 GMT 33.276260 -111.840492 2,200 49 105 64
2018-05-20 17:01:42 GMT 33.272598 -111.845047 2,200 38 103 0
2018-05-20 17:01:39 GMT 33.271816 -111.845810 2,200 38 103 0
2018-05-20 17:01:30 GMT 33.267746 -111.847412 2,200 357 103 448
2018-05-20 17:01:19 GMT 33.262924 -111.845078 2,100 325 103 768
2018-05-20 17:01:10 GMT 33.259506 -111.841919 2,000 320 101 64
2018-05-20 17:01:07 GMT 33.258545 -111.840874 2,000 311 97 320
2018-05-20 17:00:58 GMT 33.256439 -111.836319 1,900 276 90 768
2018-05-20 17:00:55 GMT 33.256359 -111.835045 1,900 276 90 768
2018-05-20 17:00:46 GMT 33.257538 -111.830765 1,800 235 90 960
2018-05-20 17:00:35 GMT 33.260147 -111.826645 1,700 234 88 640
We lost coverage of the aircraft here for a total of 5 minutes
2018-05-20 16:55:08 GMT 33.272606 -111.808083 1,300 229 58 -320
2018-05-20 16:55:02 GMT 33.273880 -111.806320 1,300 230 60 -320
2018-05-20 16:54:58 GMT 33.274612 -111.805283 1,300 229 60 -320
2018-05-20 16:54:50 GMT 33.275913 -111.803436 1,400 231 63 -256
2018-05-20 16:54:47 GMT 33.276657 -111.802368 1,400 230 64 -384
2018-05-20 16:54:39 GMT 33.278412 -111.800224 1,400 223 63 -256
2018-05-20 16:54:36 GMT 33.279030 -111.799568 1,400 223 63 -192
2018-05-20 16:54:25 GMT 33.281570 -111.797096 1,500 214 67 -768
2018-05-20 16:54:14 GMT 33.284573 -111.796036 1,600 158 65 -320
2018-05-20 16:54:03 GMT 33.287247 -111.798355 1,700 139 67 -576
2018-05-20 16:53:52 GMT 33.289692 -111.801132 1,700 134 65 -448
2018-05-20 16:53:43 GMT 33.291687 -111.803688 1,900 130 66 -832
2018-05-20 16:53:40 GMT 33.291962 -111.804123 1,900 128 66 -768
2018-05-20 16:53:32 GMT 33.293564 -111.807205 1,900 103 71 -320
2018-05-20 16:53:29 GMT 33.293655 -111.807808 2,000 95 71 -256
2018-05-20 16:53:21 GMT 33.292625 -111.811394 2,000 52 77 -512
2018-05-20 16:53:18 GMT 33.292328 -111.811874 2,000 52 77 -640
2018-05-20 16:53:08 GMT 33.290039 -111.815659 2,100 55 81 -256
2018-05-20 16:52:57 GMT 33.287552 -111.820305 2,100 58 97 128
2018-05-20 16:52:48 GMT 33.285221 -111.824730 2,200 56 107 -256
2018-05-20 16:52:45 GMT 33.284801 -111.825516 2,200 56 106 -320
2018-05-20 16:52:35 GMT 33.281822 -111.830673 2,200 54 103 0
2018-05-20 16:52:26 GMT 33.279190 -111.834831 2,200 49 103 0
2018-05-20 16:52:23 GMT 33.278458 -111.835823 2,200 48 102 -64
2018-05-20 16:52:15 GMT 33.275711 -111.839394 2,200 44 100 192
2018-05-20 16:52:12 GMT 33.274841 -111.840324 2,200 42 99 -128
2018-05-20 16:52:02 GMT 33.270744 -111.844017 2,200 19 100 192
2018-05-20 16:51:50 GMT 33.265575 -111.844017 2,100 336 97 384
2018-05-20 16:51:39 GMT 33.260925 -111.840164 2,100 321 95 -64
2018-05-20 16:51:30 GMT 33.258682 -111.837418 2,000 302 87 704
2018-05-20 16:51:26 GMT 33.258083 -111.835945 2,000 289 86 1088
2018-05-20 16:51:18 GMT 33.257664 -111.832413 1,900 264 85 896
2018-05-20 16:51:15 GMT 33.258038 -111.830505 1,800 249 85 768
2018-05-20 16:51:07 GMT 33.259434 -111.827873 1,700 233 84 704
2018-05-20 16:51:03 GMT 33.260788 -111.825714 1,700 234 83 448
2018-05-20 16:50:57 GMT 33.261948 -111.823837 1,600 234 82 832
2018-05-20 16:50:50 GMT 33.263443 -111.821541 1,500 232 77 448
We lost coverage of the aircraft here for a total of 6 minutes
2018-05-20 16:44:46 GMT 33.272049 -111.808868 1,200 229 62 -512
2018-05-20 16:44:35 GMT 33.273956 -111.806183 1,300 232 65 -256
2018-05-20 16:44:24 GMT 33.275940 -111.803467 1,300 229 64 -320
2018-05-20 16:44:14 GMT 33.278194 -111.800514 1,400 226 62 -448
2018-05-20 16:44:03 GMT 33.280472 -111.797646 1,500 227 64 -384
2018-05-20 16:43:54 GMT 33.282394 -111.795448 1,500 222 64 -512
2018-05-20 16:43:50 GMT 33.282940 -111.794853 1,600 221 65 -384
2018-05-20 16:43:43 GMT 33.284943 -111.793060 1,600 214 67 -640
2018-05-20 16:43:40 GMT 33.285736 -111.792480 1,600 206 67 -576
2018-05-20 16:43:31 GMT 33.288666 -111.791832 1,700 163 70 -384
2018-05-20 16:43:25 GMT 33.290764 -111.793121 1,700 142 73 -64
2018-05-20 16:43:21 GMT 33.291180 -111.793457 1,700 140 72 -256
2018-05-20 16:43:17 GMT 33.292439 -111.794746 1,700 136 72 -128
2018-05-20 16:43:13 GMT 33.293648 -111.796143 1,800 135 70 -256
2018-05-20 16:43:10 GMT 33.293884 -111.796432 1,800 135 70 -128
2018-05-20 16:43:06 GMT 33.295044 -111.797882 1,800 125 70 -832
2018-05-20 16:43:01 GMT 33.295807 -111.799515 1,900 108 67 -384
2018-05-20 16:42:58 GMT 33.295944 -111.800117 1,900 105 68 -192
2018-05-20 16:42:54 GMT 33.296173 -111.801987 1,900 84 75 -256
2018-05-20 16:42:50 GMT 33.295898 -111.803635 1,900 73 76 -512
2018-05-20 16:42:45 GMT 33.295418 -111.805450 1,900 70 75 -704
2018-05-20 16:42:42 GMT 33.294998 -111.806854 1,900 70 75 -256
2018-05-20 16:42:39 GMT 33.294533 -111.808311 2,000 67 77 -128
2018-05-20 16:42:34 GMT 33.294067 -111.809616 2,000 64 76 -384
2018-05-20 16:42:28 GMT 33.292904 -111.812286 2,000 59 77 -448
2018-05-20 16:42:23 GMT 33.292065 -111.813911 2,100 59 78 -448
2018-05-20 16:42:20 GMT 33.291367 -111.815430 2,100 60 80 -256
2018-05-20 16:42:17 GMT 33.290817 -111.816597 2,100 61 79 -448
2018-05-20 16:42:13 GMT 33.290157 -111.818062 2,100 60 82 -256
2018-05-20 16:42:06 GMT 33.288761 -111.820869 2,200 58 88 -448
2018-05-20 16:42:02 GMT 33.287735 -111.822830 2,200 58 92 -256
2018-05-20 16:41:57 GMT 33.286560 -111.825058 2,200 58 95 -128
2018-05-20 16:41:54 GMT 33.286201 -111.825745 2,200 58 95 0
2018-05-20 16:41:51 GMT 33.285187 -111.827744 2,200 57 95 192
2018-05-20 16:41:44 GMT 33.283779 -111.830399 2,200 56 95 0
2018-05-20 16:41:40 GMT 33.282532 -111.832527 2,200 55 96 0
2018-05-20 16:41:32 GMT 33.280655 -111.835655 2,200 52 101 192
2018-05-20 16:41:29 GMT 33.279648 -111.837196 2,200 51 102 192
2018-05-20 16:41:21 GMT 33.277405 -111.840378 2,200 47 110 -192
2018-05-20 16:41:18 GMT 33.276123 -111.842026 2,200 47 110 -192
2018-05-20 16:41:11 GMT 33.273697 -111.844940 2,200 40 109 -704
2018-05-20 16:41:07 GMT 33.272003 -111.846535 2,300 33 105 -1216
2018-05-20 16:40:59 GMT 33.268799 -111.848236 2,300 5 101 256
2018-05-20 16:40:56 GMT 33.266968 -111.848289 2,300 355 100 384
2018-05-20 16:40:47 GMT 33.263714 -111.846931 2,200 326 100 448
2018-05-20 16:40:44 GMT 33.262436 -111.845764 2,200 322 100 448
2018-05-20 16:40:36 GMT 33.259277 -111.842522 2,100 313 97 128
2018-05-20 16:40:32 GMT 33.258499 -111.841438 2,100 307 95 -64
2018-05-20 16:40:27 GMT 33.257385 -111.839249 2,100 287 88 512
2018-05-20 16:40:24 GMT 33.256897 -111.837524 2,100 282 86 512
2018-05-20 16:40:17 GMT 33.256824 -111.834038 2,000 257 83 896
2018-05-20 16:40:11 GMT 33.257568 -111.831680 1,900 244 82 576
2018-05-20 16:40:06 GMT 33.258595 -111.829498 1,900 238 80 896
2018-05-20 16:40:00 GMT 33.259735 -111.827469 1,800 237 80 1024
We lost coverage of the aircraft here for a total of 41 minutes
2018-05-20 15:59:13 GMT 33.265594 -111.814346 1,300 49 73 -448
2018-05-20 15:59:10 GMT 33.264786 -111.815430 1,300 49 73 -448
2018-05-20 15:59:06 GMT 33.264084 -111.816429 1,300 49 74 -384
2018-05-20 15:59:01 GMT 33.262924 -111.818062 1,300 49 74 -576
2018-05-20 15:58:55 GMT 33.261658 -111.819839 1,400 49 73 -640
2018-05-20 15:58:50 GMT 33.260456 -111.821541 1,400 47 76 -512
2018-05-20 15:58:44 GMT 33.258728 -111.823517 1,500 42 78 -768
2018-05-20 15:58:38 GMT 33.257290 -111.824844 1,500 29 81 -512
2018-05-20 15:58:32 GMT 33.255383 -111.826019 1,600 22 81 -512
2018-05-20 15:58:29 GMT 33.253845 -111.826698 1,600 16 83 -512
2018-05-20 15:58:22 GMT 33.250900 -111.827309 1,700 1 87 -512
2018-05-20 15:58:18 GMT 33.249424 -111.827202 1,700 352 84 -448
2018-05-20 15:58:07 GMT 33.245544 -111.825989 1,800 339 82 -448
2018-05-20 15:58:00 GMT 33.243511 -111.824844 1,900 325 81 -448
2018-05-20 15:57:56 GMT 33.241882 -111.823296 1,900 319 81 -512
2018-05-20 15:57:45 GMT 33.239044 -111.820000 2,000 314 79 -384
2018-05-20 15:57:37 GMT 33.236530 -111.816887 2,100 313 86 -64
2018-05-20 15:57:34 GMT 33.236160 -111.816322 2,100 312 87 -64
2018-05-20 15:57:23 GMT 33.233036 -111.812180 2,100 313 90 -448
2018-05-20 15:57:11 GMT 33.229778 -111.808029 2,200 317 99 -192
2018-05-20 15:57:05 GMT 33.227509 -111.805611 2,200 320 101 -576
2018-05-20 15:57:00 GMT 33.225960 -111.804108 2,300 322 102 -768
2018-05-20 15:56:52 GMT 33.222977 -111.801323 2,400 324 104 -704
2018-05-20 15:56:49 GMT 33.221584 -111.800240 2,400 328 107 -832
2018-05-20 15:56:43 GMT 33.218857 -111.798523 2,500 345 106 -1152
2018-05-20 15:56:39 GMT 33.216419 -111.797882 2,600 358 106 -576
2018-05-20 15:56:33 GMT 33.214188 -111.798027 2,600 6 107 -384
2018-05-20 15:56:28 GMT 33.211258 -111.798691 2,700 13 105 -640
2018-05-20 15:56:17 GMT 33.205719 -111.800117 2,800 9 105 -576
2018-05-20 15:56:06 GMT 33.200497 -111.801193 2,800 8 106 -192
2018-05-20 15:55:59 GMT 33.197426 -111.801529 2,800 0 113 -320
2018-05-20 15:55:54 GMT 33.194778 -111.801651 2,900 0 113 -384
2018-05-20 15:55:48 GMT 33.191792 -111.801636 2,900 358 112 -320
2018-05-20 15:55:43 GMT 33.189011 -111.801491 2,900 358 111 -192
2018-05-20 15:55:32 GMT 33.183086 -111.801132 3,000 358 109 -192
2018-05-20 15:55:20 GMT 33.176971 -111.801048 3,000 0 110 0
2018-05-20 15:55:11 GMT 33.172146 -111.800911 3,000 358 110 -192
2018-05-20 15:55:07 GMT 33.171112 -111.800888 3,000 358 109 -192
2018-05-20 15:55:00 GMT 33.166470 -111.800690 3,000 359 112 192
2018-05-20 15:54:57 GMT 33.165165 -111.800629 3,000 359 114 -128
2018-05-20 15:54:48 GMT 33.160275 -111.800575 3,000 0 115 -128
2018-05-20 15:54:45 GMT 33.158974 -111.800629 3,000 0 115 64
2018-05-20 15:54:38 GMT 33.155018 -111.800690 3,000 1 114 64
2018-05-20 15:54:34 GMT 33.152874 -111.800743 3,000 0 114 64
2018-05-20 15:54:25 GMT 33.148773 -111.800613 3,000 358 111 128
2018-05-20 15:54:21 GMT 33.146988 -111.800499 3,000 358 111 320
2018-05-20 15:54:18 GMT 33.144653 -111.800392 3,000 359 111 192
2018-05-20 15:54:15 GMT 33.143234 -111.800339 3,000 359 111 128
2018-05-20 15:54:10 GMT 33.141098 -111.800240 3,000 359 110 -64
2018-05-20 15:54:04 GMT 33.137421 -111.800179 3,000 0 108 384
2018-05-20 15:54:00 GMT 33.135361 -111.800171 2,900 359 108 448
2018-05-20 15:53:54 GMT 33.131973 -111.800072 2,900 359 110 384
2018-05-20 15:53:47 GMT 33.129505 -111.800011 2,900 0 111 192
2018-05-20 15:53:42 GMT 33.126114 -111.799843 2,900 358 108 -64
2018-05-20 15:53:36 GMT 33.123230 -111.799675 2,800 358 106 64
2018-05-20 15:53:31 GMT 33.120800 -111.799622 2,800 358 103 192
2018-05-20 15:53:20 GMT 33.115860 -111.799294 2,800 359 97 128
2018-05-20 15:53:11 GMT 33.111862 -111.799232 2,700 358 93 320
2018-05-20 15:53:07 GMT 33.110699 -111.799171 2,700 357 93 512
2018-05-20 15:52:57 GMT 33.106064 -111.797531 2,600 318 89 192
2018-05-20 15:52:50 GMT 33.104225 -111.795197 2,600 301 86 384
2018-05-20 15:52:46 GMT 33.103481 -111.793343 2,600 288 82 448
2018-05-20 15:52:39 GMT 33.103134 -111.790337 2,500 265 82 896
2018-05-20 15:52:32 GMT 33.103775 -111.787262 2,400 245 86 1280
2018-05-20 15:52:28 GMT 33.104828 -111.785446 2,400 224 85 -64
2018-05-20 15:52:21 GMT 33.106567 -111.783913 2,400 210 79 384
2018-05-20 15:52:16 GMT 33.108673 -111.782867 2,300 194 77 768
2018-05-20 15:52:10 GMT 33.110275 -111.782539 2,300 186 78 448
2018-05-20 15:52:00 GMT 33.114376 -111.783089 2,200 160 74 960
2018-05-20 15:51:55 GMT 33.115913 -111.783813 2,100 149 75 832
2018-05-20 15:51:42 GMT 33.118973 -111.787537 2,000 123 77 512
2018-05-20 15:51:33 GMT 33.120335 -111.791161 1,900 105 76 704
2018-05-20 15:51:30 GMT 33.120476 -111.791832 1,900 105 76 832
2018-05-20 15:51:22 GMT 33.121498 -111.795532 1,700 110 80 960
2018-05-20 15:51:12 GMT 33.122990 -111.800011 1,600 113 83 256
2018-05-20 15:51:08 GMT 33.123505 -111.801376 1,600 105 87 -576
2018-05-20 15:51:02 GMT 33.124336 -111.804382 1,700 103 87 -640
2018-05-20 15:50:55 GMT 33.124557 -111.807037 1,800 87 89 -896
2018-05-20 15:50:51 GMT 33.124191 -111.809677 1,800 71 86 -1024
2018-05-20 15:50:45 GMT 33.123322 -111.812149 1,900 61 89 -576
2018-05-20 15:50:37 GMT 33.120987 -111.815544 2,000 38 94 -576
2018-05-20 15:50:26 GMT 33.116329 -111.817444 2,100 351 92 -960
2018-05-20 15:50:21 GMT 33.114513 -111.816887 2,200 337 89 -896
2018-05-20 15:50:16 GMT 33.113167 -111.815880 2,300 322 82 -704
2018-05-20 15:50:12 GMT 33.111649 -111.814453 2,300 323 85 -448
2018-05-20 15:50:04 GMT 33.109268 -111.812256 2,400 322 89 -768
2018-05-20 15:49:57 GMT 33.105576 -111.808647 2,600 320 89 -896
2018-05-20 15:49:53 GMT 33.105717 -111.808815 2,600 320 89 -896
2018-05-20 15:49:49 GMT 33.104416 -111.807526 2,600 320 90 -832
2018-05-20 15:49:40 GMT 33.101807 -111.804893 2,700 322 92 -1024
2018-05-20 15:49:36 GMT 33.100433 -111.803574 2,800 321 90 -1152
2018-05-20 15:49:29 GMT 33.098373 -111.801651 2,900 322 89 -576
2018-05-20 15:49:26 GMT 33.096870 -111.800179 2,900 321 92 -704
2018-05-20 15:49:18 GMT 33.094711 -111.798080 3,000 322 87 -832
2018-05-20 15:49:14 GMT 33.093006 -111.796486 3,100 324 88 -704
2018-05-20 15:49:07 GMT 33.090958 -111.794731 3,100 326 89 -768
2018-05-20 15:49:01 GMT 33.088913 -111.793175 3,200 327 87 -1152
2018-05-20 15:48:57 GMT 33.087330 -111.791885 3,300 324 85 -832
2018-05-20 15:48:51 GMT 33.085419 -111.790176 3,400 326 81 -1024
2018-05-20 15:48:46 GMT 33.083771 -111.788910 3,500 331 82 -576
2018-05-20 15:48:42 GMT 33.082905 -111.788353 3,500 332 83 -896
2018-05-20 15:48:35 GMT 33.080292 -111.786713 3,600 334 80 -640
2018-05-20 15:48:31 GMT 33.079273 -111.786110 3,600 333 80 -640
2018-05-20 15:48:28 GMT 33.077911 -111.785233 3,700 331 83 -384
2018-05-20 15:48:24 GMT 33.076492 -111.784294 3,700 331 88 192
2018-05-20 15:48:20 GMT 33.075550 -111.783646 3,700 333 94 -64
2018-05-20 15:48:13 GMT 33.072006 -111.781769 3,800 342 95 -1408
2018-05-20 15:48:09 GMT 33.071045 -111.781387 3,900 345 94 -1216
2018-05-20 15:48:02 GMT 33.067383 -111.780617 4,000 358 96 -576
2018-05-20 15:47:53 GMT 33.063122 -111.781120 4,000 17 107 256
2018-05-20 15:47:50 GMT 33.061630 -111.781738 4,000 21 109 320
2018-05-20 15:47:42 GMT 33.058094 -111.784317 4,100 45 111 -704
2018-05-20 15:47:39 GMT 33.057495 -111.785011 4,100 48 110 -704
2018-05-20 15:47:28 GMT 33.055435 -111.790833 4,200 94 99 -832
2018-05-20 15:47:18 GMT 33.057907 -111.795120 4,300 163 76 -1024
2018-05-20 15:47:05 GMT 33.061119 -111.794968 4,300 195 49 640
2018-05-20 15:47:00 GMT 33.062424 -111.794632 4,300 191 54 640
2018-05-20 15:46:56 GMT 33.063629 -111.794403 4,300 189 52 448
2018-05-20 15:46:45 GMT 33.066425 -111.794014 4,100 187 58 1088
2018-05-20 15:46:35 GMT 33.069126 -111.793625 3,900 185 72 1344
2018-05-20 15:46:32 GMT 33.069733 -111.793571 3,900 185 70 1280
2018-05-20 15:46:22 GMT 33.074017 -111.793343 3,700 181 83 448
2018-05-20 15:46:13 GMT 33.077320 -111.793289 3,700 181 85 -320
2018-05-20 15:46:10 GMT 33.078369 -111.793251 3,800 181 87 -320
2018-05-20 15:46:02 GMT 33.082069 -111.793121 3,800 182 96 128
2018-05-20 15:45:59 GMT 33.083267 -111.793083 3,800 182 102 128
2018-05-20 15:45:51 GMT 33.087158 -111.792976 3,800 182 104 128
2018-05-20 15:45:46 GMT 33.089146 -111.792953 3,800 182 103 192
2018-05-20 15:45:40 GMT 33.092262 -111.792786 3,700 184 103 896
2018-05-20 15:45:36 GMT 33.094406 -111.792618 3,700 186 106 192
2018-05-20 15:45:29 GMT 33.097504 -111.791603 3,700 219 103 320
2018-05-20 15:45:23 GMT 33.098873 -111.789253 3,600 257 107 576
2018-05-20 15:45:17 GMT 33.098236 -111.785233 3,600 310 106 -448
2018-05-20 15:45:13 GMT 33.096725 -111.783745 3,600 351 96 -64
2018-05-20 15:45:05 GMT 33.093842 -111.783691 3,600 29 90 512
2018-05-20 15:45:01 GMT 33.092056 -111.784843 3,600 32 89 384
2018-05-20 15:44:54 GMT 33.089981 -111.786560 3,500 37 84 192
2018-05-20 15:44:49 GMT 33.088531 -111.788033 3,500 43 79 192
2018-05-20 15:44:44 GMT 33.087189 -111.789810 3,500 51 70 384
2018-05-20 15:44:39 GMT 33.086166 -111.791496 3,500 57 66 448
2018-05-20 15:44:33 GMT 33.085327 -111.793060 3,400 57 65 512
2018-05-20 15:44:26 GMT 33.084229 -111.795280 3,400 61 69 1024
2018-05-20 15:44:23 GMT 33.083511 -111.796822 3,300 61 76 896
2018-05-20 15:44:15 GMT 33.082397 -111.799126 3,300 55 71 -1024
2018-05-20 15:44:11 GMT 33.081509 -111.800461 3,400 48 53 -1216
2018-05-20 15:44:04 GMT 33.080246 -111.801544 3,500 10 52 -640
2018-05-20 15:44:00 GMT 33.078918 -111.801323 3,500 337 60 -128
2018-05-20 15:43:54 GMT 33.077682 -111.799950 3,500 297 72 -384
2018-05-20 15:43:50 GMT 33.077274 -111.798500 3,600 280 75 -384
2018-05-20 15:43:46 GMT 33.077133 -111.797096 3,600 276 78 -640
2018-05-20 15:43:43 GMT 33.076996 -111.795280 3,600 277 77 -1024
2018-05-20 15:43:37 GMT 33.076763 -111.793236 3,700 278 74 -768
2018-05-20 15:43:31 GMT 33.076435 -111.790375 3,800 278 76 -832
2018-05-20 15:43:26 GMT 33.076248 -111.788635 3,900 278 72 -1472
2018-05-20 15:43:20 GMT 33.076015 -111.785889 3,900 276 74 384
2018-05-20 15:43:15 GMT 33.075943 -111.784462 3,900 273 89 320
2018-05-20 15:43:08 GMT 33.075714 -111.780449 3,900 273 106 384
2018-05-20 15:43:05 GMT 33.075623 -111.778801 3,900 273 106 384
2018-05-20 15:42:55 GMT 33.075577 -111.772598 3,800 272 106 768
2018-05-20 15:42:45 GMT 33.073517 -111.768257 3,800 22 101 -1152
2018-05-20 15:42:42 GMT 33.071316 -111.768402 3,800 22 101 -1152
2018-05-20 15:42:37 GMT 33.070057 -111.770142 3,800 70 95 448
2018-05-20 15:42:33 GMT 33.069580 -111.772484 3,800 81 96 320
2018-05-20 15:42:22 GMT 33.068939 -111.778381 3,800 85 98 -64
2018-05-20 15:42:11 GMT 33.069260 -111.784134 3,800 108 92 256
2018-05-20 15:42:00 GMT 33.071320 -111.789238 3,700 118 100 448
2018-05-20 15:41:51 GMT 33.073502 -111.793907 3,700 121 103 128
2018-05-20 15:41:48 GMT 33.073837 -111.794510 3,700 122 103 128
2018-05-20 15:41:37 GMT 33.077644 -111.800240 3,600 134 105 128
2018-05-20 15:41:26 GMT 33.081463 -111.804611 3,600 138 109 0
2018-05-20 15:41:15 GMT 33.086121 -111.807693 3,600 180 106 -128
2018-05-20 15:41:07 GMT 33.089333 -111.806122 3,600 240 104 0
2018-05-20 15:41:04 GMT 33.090317 -111.804184 3,600 253 104 -64
2018-05-20 15:40:53 GMT 33.090637 -111.798416 3,700 272 86 192
2018-05-20 15:40:42 GMT 33.090214 -111.793625 3,600 278 81 512
2018-05-20 15:40:31 GMT 33.089516 -111.788803 3,600 286 72 -512
2018-05-20 15:40:20 GMT 33.088402 -111.785667 3,700 310 56 -512
2018-05-20 15:40:09 GMT 33.085514 -111.784149 3,800 359 69 0
2018-05-20 15:39:58 GMT 33.079880 -111.783813 3,900 0 76 -448
2018-05-20 15:39:47 GMT 33.078003 -111.783798 3,900 0 76 -960
2018-05-20 15:39:40 GMT 33.075668 -111.783913 4,000 4 71 -512
2018-05-20 15:39:34 GMT 33.074062 -111.784096 4,000 2 80 1024
2018-05-20 15:39:29 GMT 33.071915 -111.784134 4,000 1 98 -256
2018-05-20 15:39:25 GMT 33.069534 -111.784187 4,000 0 104 -64
2018-05-20 15:39:18 GMT 33.066845 -111.784210 4,100 0 109 -128
2018-05-20 15:39:13 GMT 33.063492 -111.784019 4,000 358 108 -64
2018-05-20 15:39:07 GMT 33.061260 -111.784149 4,100 8 105 64
2018-05-20 15:39:03 GMT 33.058655 -111.784988 4,000 29 100 0
2018-05-20 15:38:57 GMT 33.057037 -111.786934 4,000 64 99 576
2018-05-20 15:38:51 GMT 33.056534 -111.790176 4,000 120 95 -128
2018-05-20 15:38:47 GMT 33.057083 -111.792648 4,000 125 94 -64
2018-05-20 15:38:39 GMT 33.059490 -111.794579 4,000 166 96 704
2018-05-20 15:38:36 GMT 33.061260 -111.794853 3,900 182 101 128
2018-05-20 15:38:29 GMT 33.064316 -111.794731 3,900 183 102 1024
2018-05-20 15:38:25 GMT 33.066799 -111.794411 3,800 204 109 128
2018-05-20 15:38:18 GMT 33.069080 -111.791664 3,800 254 109 -448
2018-05-20 15:38:14 GMT 33.069122 -111.789238 3,900 291 107 -64
2018-05-20 15:38:07 GMT 33.066513 -111.786606 3,800 354 107 704
2018-05-20 15:38:02 GMT 33.064007 -111.787064 3,800 27 111 640
2018-05-20 15:37:56 GMT 33.062515 -111.790092 3,800 94 104 -768
2018-05-20 15:37:50 GMT 33.063496 -111.792503 3,900 158 96 -512
2018-05-20 15:37:45 GMT 33.066055 -111.793289 3,900 181 96 64
2018-05-20 15:37:41 GMT 33.067841 -111.793198 3,900 185 94 128
2018-05-20 15:37:34 GMT 33.071045 -111.792702 3,900 190 101 640
2018-05-20 15:37:30 GMT 33.072849 -111.792336 3,800 193 109 896
2018-05-20 15:37:23 GMT 33.076248 -111.791435 3,800 177 113 -192
2018-05-20 15:37:19 GMT 33.078392 -111.792389 3,800 137 108 -896
2018-05-20 15:37:12 GMT 33.079273 -111.796036 3,900 68 103 -64
2018-05-20 15:37:08 GMT 33.078205 -111.797882 3,900 36 103 -448
2018-05-20 15:37:01 GMT 33.074799 -111.798027 3,900 328 105 256
2018-05-20 15:36:57 GMT 33.073608 -111.796158 3,900 281 112 -64
2018-05-20 15:36:50 GMT 33.074524 -111.792099 4,000 217 103 -960
2018-05-20 15:36:46 GMT 33.076172 -111.791382 4,000 189 99 0
2018-05-20 15:36:39 GMT 33.079273 -111.791267 4,000 182 103 320
2018-05-20 15:36:35 GMT 33.081184 -111.791214 3,900 180 104 0
2018-05-20 15:36:28 GMT 33.084595 -111.791000 4,000 199 102 -192
2018-05-20 15:36:23 GMT 33.086121 -111.790039 4,000 221 104 512
2018-05-20 15:36:17 GMT 33.088120 -111.786278 3,900 264 119 192
2018-05-20 15:36:12 GMT 33.087841 -111.783646 3,900 292 119 -1344
2018-05-20 15:36:06 GMT 33.085098 -111.781166 4,000 352 106 -64
2018-05-20 15:36:02 GMT 33.083588 -111.781113 4,000 2 106 448
2018-05-20 15:35:55 GMT 33.079559 -111.781387 4,000 4 110 768
2018-05-20 15:35:51 GMT 33.078064 -111.781570 3,900 8 114 832
2018-05-20 15:35:44 GMT 33.073746 -111.782974 3,900 44 113 -1408
2018-05-20 15:35:40 GMT 33.072803 -111.784431 4,000 73 106 -1024
2018-05-20 15:35:33 GMT 33.073643 -111.788467 4,000 146 100 0
2018-05-20 15:35:30 GMT 33.075073 -111.789131 4,000 175 101 128
2018-05-20 15:35:22 GMT 33.078049 -111.787262 4,000 252 105 -256
2018-05-20 15:35:19 GMT 33.078392 -111.785385 4,000 288 101 -832
2018-05-20 15:35:16 GMT 33.078064 -111.783813 4,000 288 101 -832
2018-05-20 15:35:13 GMT 33.077499 -111.782867 4,000 313 96 -320
2018-05-20 15:35:10 GMT 33.076111 -111.781906 4,000 347 97 832
2018-05-20 15:34:57 GMT 33.072666 -111.786339 4,000 114 102 -320
2018-05-20 15:34:48 GMT 33.076157 -111.788750 4,000 173 103 -384
2018-05-20 15:34:45 GMT 33.077179 -111.788803 4,000 179 103 -256
2018-05-20 15:34:41 GMT 33.079239 -111.788689 4,000 183 101 -64
2018-05-20 15:34:36 GMT 33.082077 -111.788467 4,000 186 102 320
2018-05-20 15:34:32 GMT 33.083324 -111.788300 4,000 187 103 448
2018-05-20 15:34:27 GMT 33.086956 -111.787682 4,000 188 108 192
2018-05-20 15:34:24 GMT 33.087753 -111.787590 4,000 184 107 -128
2018-05-20 15:34:21 GMT 33.089005 -111.787735 4,000 135 102 -448
2018-05-20 15:34:15 GMT 33.091553 -111.789841 4,000 118 100 -192
2018-05-20 15:34:11 GMT 33.092358 -111.792000 4,000 103 101 448
2018-05-20 15:34:02 GMT 33.092545 -111.796371 4,000 92 107 -384
2018-05-20 15:33:52 GMT 33.094482 -111.801765 4,000 140 100 128
2018-05-20 15:33:48 GMT 33.096218 -111.802933 4,000 162 102 320
2018-05-20 15:33:41 GMT 33.099747 -111.803192 4,000 184 103 0
2018-05-20 15:33:36 GMT 33.101624 -111.803085 4,000 184 103 64
2018-05-20 15:33:30 GMT 33.104973 -111.802872 4,000 184 103 0
2018-05-20 15:33:25 GMT 33.107067 -111.802650 4,000 186 102 0
2018-05-20 15:33:19 GMT 33.109905 -111.802368 4,000 185 103 -64
2018-05-20 15:33:13 GMT 33.112656 -111.802040 4,000 186 105 192
2018-05-20 15:33:07 GMT 33.115402 -111.801765 4,000 184 106 -64
2018-05-20 15:33:03 GMT 33.118008 -111.801636 4,000 182 106 -64
2018-05-20 15:32:57 GMT 33.120987 -111.801582 4,000 182 104 -64
2018-05-20 15:32:52 GMT 33.125839 -111.801323 4,000 185 105 0
2018-05-20 15:32:46 GMT 33.126389 -111.801270 4,000 185 105 64
2018-05-20 15:32:41 GMT 33.128620 -111.801025 4,000 186 106 64
2018-05-20 15:32:35 GMT 33.131786 -111.800743 4,000 183 105 -64
2018-05-20 15:32:31 GMT 33.133804 -111.800667 4,000 182 106 64
2018-05-20 15:32:24 GMT 33.137234 -111.800629 4,000 180 106 0
2018-05-20 15:32:17 GMT 33.140121 -111.800667 4,000 180 107 -128
2018-05-20 15:32:13 GMT 33.142410 -111.800667 4,000 181 106 -64
2018-05-20 15:32:07 GMT 33.145386 -111.800613 4,000 183 106 -64
2018-05-20 15:32:02 GMT 33.148041 -111.800392 4,100 185 107 0
2018-05-20 15:31:55 GMT 33.150925 -111.800117 4,100 187 107 0
2018-05-20 15:31:51 GMT 33.153488 -111.799675 4,000 188 107 0
2018-05-20 15:31:45 GMT 33.156326 -111.799347 4,000 186 107 0
2018-05-20 15:31:40 GMT 33.158833 -111.799065 4,000 186 107 -64
2018-05-20 15:31:37 GMT 33.159809 -111.798950 4,000 190 104 128
2018-05-20 15:31:33 GMT 33.161819 -111.798691 4,100 189 105 -192
2018-05-20 15:31:29 GMT 33.164280 -111.798218 4,100 190 104 128
2018-05-20 15:31:26 GMT 33.164978 -111.798050 4,100 190 104 128
2018-05-20 15:31:22 GMT 33.167351 -111.797546 4,000 190 105 192
2018-05-20 15:31:18 GMT 33.169510 -111.797096 4,000 190 106 192
2018-05-20 15:31:11 GMT 33.172474 -111.796539 4,000 190 104 0
2018-05-20 15:31:07 GMT 33.174801 -111.796036 4,000 192 102 128
2018-05-20 15:31:04 GMT 33.175545 -111.795807 4,000 191 100 192
2018-05-20 15:30:58 GMT 33.178574 -111.795120 4,000 191 99 448
2018-05-20 15:30:53 GMT 33.180527 -111.794632 4,000 192 102 -256
2018-05-20 15:30:48 GMT 33.182899 -111.794075 4,000 192 98 -1024
2018-05-20 15:30:45 GMT 33.184845 -111.793579 4,100 191 92 -512
2018-05-20 15:30:37 GMT 33.187592 -111.793030 4,100 190 95 -448
2018-05-20 15:30:34 GMT 33.189514 -111.792587 4,100 193 96 -704
2018-05-20 15:30:31 GMT 33.190247 -111.792427 4,200 194 96 -640
2018-05-20 15:30:26 GMT 33.192398 -111.791771 4,200 195 97 -768
2018-05-20 15:30:21 GMT 33.194912 -111.791100 4,300 193 100 -384
2018-05-20 15:30:16 GMT 33.197525 -111.790390 4,300 193 105 -320
2018-05-20 15:30:10 GMT 33.200134 -111.789734 4,400 192 108 -256
2018-05-20 15:30:04 GMT 33.203339 -111.788857 4,400 194 104 320
2018-05-20 15:30:01 GMT 33.204758 -111.788528 4,300 191 105 768
2018-05-20 15:29:58 GMT 33.205620 -111.788300 4,300 190 107 576
2018-05-20 15:29:53 GMT 33.209930 -111.787704 4,300 186 98 -512
2018-05-20 15:29:50 GMT 33.210159 -111.787643 4,300 186 98 -512
2018-05-20 15:29:47 GMT 33.210983 -111.787537 4,300 187 94 64
2018-05-20 15:29:39 GMT 33.215069 -111.787010 4,300 188 91 192
2018-05-20 15:29:35 GMT 33.215973 -111.786819 4,300 187 90 448
2018-05-20 15:29:28 GMT 33.219498 -111.786270 4,200 188 87 -256
2018-05-20 15:29:25 GMT 33.220329 -111.786171 4,200 187 82 -320
2018-05-20 15:29:17 GMT 33.223480 -111.785614 4,200 189 70 576
2018-05-20 15:29:14 GMT 33.224098 -111.785500 4,200 189 70 704
2018-05-20 15:29:05 GMT 33.227219 -111.784882 4,100 190 71 576
2018-05-20 15:29:02 GMT 33.227875 -111.784790 4,100 191 71 768
2018-05-20 15:28:54 GMT 33.230942 -111.784019 3,900 192 79 1408
2018-05-20 15:28:51 GMT 33.231674 -111.783859 3,900 192 83 1664
2018-05-20 15:28:44 GMT 33.234833 -111.783089 3,700 193 94 832
2018-05-20 15:28:41 GMT 33.236061 -111.782753 3,700 193 95 896
2018-05-20 15:28:34 GMT 33.239647 -111.781967 3,600 190 99 512
2018-05-20 15:28:30 GMT 33.241043 -111.781685 3,600 190 99 512
2018-05-20 15:28:21 GMT 33.245651 -111.780785 3,500 189 99 384
2018-05-20 15:28:12 GMT 33.249710 -111.780014 3,500 191 96 256
2018-05-20 15:28:08 GMT 33.250866 -111.779724 3,500 191 95 320
2018-05-20 15:27:59 GMT 33.255066 -111.778915 3,400 189 91 256
2018-05-20 15:27:52 GMT 33.257755 -111.778320 3,400 192 89 896
2018-05-20 15:27:48 GMT 33.259598 -111.777870 3,300 191 91 768
2018-05-20 15:27:45 GMT 33.260269 -111.777702 3,300 191 91 768
2018-05-20 15:27:39 GMT 33.263435 -111.776917 3,200 195 92 576
2018-05-20 15:27:35 GMT 33.264553 -111.776581 3,200 195 92 576
2018-05-20 15:27:28 GMT 33.267857 -111.775520 3,100 193 90 384
2018-05-20 15:27:25 GMT 33.269024 -111.775238 3,100 192 89 576
2018-05-20 15:27:17 GMT 33.272552 -111.774574 3,000 188 89 704
2018-05-20 15:27:14 GMT 33.273815 -111.774399 3,000 186 90 640
2018-05-20 15:27:06 GMT 33.277039 -111.773911 2,900 189 88 448
2018-05-20 15:27:02 GMT 33.278366 -111.773697 2,900 189 87 576
2018-05-20 15:26:53 GMT 33.281963 -111.773056 2,800 189 85 448
2018-05-20 15:26:50 GMT 33.282944 -111.772873 2,800 189 85 576
2018-05-20 15:26:44 GMT 33.285454 -111.772377 2,700 191 86 1088
2018-05-20 15:26:40 GMT 33.287552 -111.771988 2,600 184 88 896
2018-05-20 15:26:34 GMT 33.289738 -111.772270 2,600 164 88 384
2018-05-20 15:26:29 GMT 33.291786 -111.773277 2,500 147 84 384
2018-05-20 15:26:21 GMT 33.293884 -111.775345 2,500 130 82 576
2018-05-20 15:26:17 GMT 33.294800 -111.776772 2,400 119 85 1152
2018-05-20 15:26:10 GMT 33.295605 -111.779892 2,300 90 90 512
2018-05-20 15:26:06 GMT 33.295372 -111.782021 2,300 68 91 576
2018-05-20 15:25:58 GMT 33.293648 -111.785049 2,200 44 93 768
2018-05-20 15:25:54 GMT 33.292282 -111.786438 2,200 39 92 576
2018-05-20 15:25:48 GMT 33.290314 -111.788414 2,100 41 91 768
2018-05-20 15:25:44 GMT 33.288574 -111.790207 2,000 41 90 576
2018-05-20 15:25:37 GMT 33.286880 -111.792038 2,000 42 89 576
2018-05-20 15:25:31 GMT 33.285095 -111.793961 1,900 42 86 576
2018-05-20 15:25:27 GMT 33.283493 -111.795723 1,900 43 84 704
2018-05-20 15:25:21 GMT 33.281963 -111.797379 1,800 42 84 768
2018-05-20 15:25:16 GMT 33.280289 -111.799179 1,700 42 84 576
2018-05-20 15:25:09 GMT 33.278660 -111.800964 1,700 42 84 832

Making use of Plane Finder data

You are free to use the raw flight data, aircraft information and images provided in this report for your own purposes provided the data is correctly attributed to Plane Finder. We ask that you please credit Plane Finder and link to planefinder.net in close proximity to the content.

Optionally one of the following logos (no smaller then 150x24px) can be used and must link to planefinder.net

Embedding the Plane Finder map

You are welcome to embed the Plane Finder playback map on your website to offer visitors a more interactive experience. We suggest using the following HTML code:

<iframe src="//planefinder.net/data/report/N4147T-N4147T-7700-squawk-2018-05-20/map" width="800" height="600" seamless="seamless"></iframe>

Where our data comes from

Plane Finder has a global network of data feeds and antenna radars that receive data broadcast directly from aircraft. The primary technologies used are ADS-B and MLAT. We also show feeds from the FAA and a FLARM glider feed.

Click here to find out more about the Plane Finder network.

How we collect our data